Observation data for Hackberry on 08/14/2019      Previous  Date  Next       Current Mesonet Observations  Soil Data  Daily Summary Page  Observations in Plain Language
KHA3 140500Z 07008KT 27/20 A3004 RMK A01 T02700197  RH  064%=      5-min Rain = 0
KHA3 140501Z 07008KT 27/20 A3004 RMK A01 T02700197  RH  064%=      5-min Rain = 0
KHA3 140502Z 06008KT 27/20 A3004 RMK A01 T02700197  RH  064%=      5-min Rain = 0
KHA3 140503Z 06008KT 27/20 A3005 RMK A01 T02710197  RH  064%=      5-min Rain = 0
KHA3 140504Z 07008KT 27/20 A3005 RMK A01 T02710197  RH  064%=      5-min Rain = 0
KHA3 140505Z 06008KT 27/20 A3005 RMK A01 T02710197  RH  064%=      5-min Rain = 0
KHA3 140506Z 06008KT 27/20 A3005 RMK A01 T02710197  RH  064%=      5-min Rain = 0
KHA3 140507Z 06007KT 27/20 A3005 RMK A01 T02700197  RH  064%=      5-min Rain = 0
KHA3 140508Z 06007KT 27/20 A3005 RMK A01 T02700197  RH  064%=      5-min Rain = 0
KHA3 140509Z 06007KT 27/20 A3005 RMK A01 T02690197  RH  065%=      5-min Rain = 0
KHA3 140510Z 06007KT 27/20 A3005 RMK A01 T02680197  RH  065%=      5-min Rain = 0
KHA3 140522Z 06007KT 26/20 A3006 RMK A01 T02630197  RH  067%=      5-min Rain = 0
KHA3 140523Z 06007KT 26/20 A3006 RMK A01 T02640197  RH  067%=      5-min Rain = 0
KHA3 140524Z 05007KT 26/20 A3006 RMK A01 T02630197  RH  067%=      5-min Rain = 0
KHA3 140525Z 05007KT 26/20 A3006 RMK A01 T02630197  RH  067%=      5-min Rain = 0
KHA3 140526Z 05007KT 26/20 A3006 RMK A01 T02630197  RH  067%=      5-min Rain = 0
KHA3 140527Z 05007KT 26/20 A3006 RMK A01 T02630197  RH  067%=      5-min Rain = 0
KHA3 140528Z 05008KT 26/20 A3006 RMK A01 T02620197  RH  067%=      5-min Rain = 0
KHA3 140529Z 05007KT 26/20 A3006 RMK A01 T02620198  RH  068%=      5-min Rain = 0
KHA3 140530Z 05007KT 26/20 A3006 RMK A01 T02620198  RH  068%=      5-min Rain = 0
KHA3 140531Z 05007KT 26/20 A3006 RMK A01 T02620198  RH  068%=      5-min Rain = 0
KHA3 140532Z 06007KT 26/20 A3006 RMK A01 T02620198  RH  068%=      5-min Rain = 0
KHA3 140533Z 06007KT 26/20 A3006 RMK A01 T02620198  RH  068%=      5-min Rain = 0
KHA3 140534Z 06007KT 26/20 A3006 RMK A01 T02620198  RH  068%=      5-min Rain = 0
KHA3 140535Z 06007KT 26/20 A3006 RMK A01 T02620198  RH  068%=      5-min Rain = 0
KHA3 140536Z 06007KT 26/20 A3006 RMK A01 T02620198  RH  068%=      5-min Rain = 0
KHA3 140537Z 06007KT 26/20 A3006 RMK A01 T02620198  RH  068%=      5-min Rain = 0
KHA3 140538Z 06007KT 26/20 A3006 RMK A01 T02620198  RH  068%=      5-min Rain = 0
KHA3 140539Z 06008KT 26/20 A3006 RMK A01 T02620198  RH  068%=      5-min Rain = 0
KHA3 140540Z 06007KT 26/20 A3006 RMK A01 T02620198  RH  068%=      5-min Rain = 0
KHA3 140541Z 06007KT 26/20 A3006 RMK A01 T02620198  RH  068%=      5-min Rain = 0
KHA3 140542Z 06007KT 26/20 A3006 RMK A01 T02620198  RH  068%=      5-min Rain = 0
KHA3 140543Z 06007KT 26/20 A3006 RMK A01 T02620198  RH  068%=      5-min Rain = 0
KHA3 140544Z 05007KT 26/20 A3006 RMK A01 T02630198  RH  068%=      5-min Rain = 0
KHA3 140545Z 05007KT 26/20 A3006 RMK A01 T02630198  RH  068%=      5-min Rain = 0
KHA3 140546Z 05008KT 26/20 A3006 RMK A01 T02630198  RH  067%=      5-min Rain = 0
KHA3 140547Z 05007KT 26/20 A3006 RMK A01 T02630198  RH  067%=      5-min Rain = 0
KHA3 140548Z 05007KT 26/20 A3006 RMK A01 T02630198  RH  068%=      5-min Rain = 0
KHA3 140549Z 05007KT 26/20 A3006 RMK A01 T02630199  RH  068%=      5-min Rain = 0
KHA3 140550Z 06008KT 26/20 A3006 RMK A01 T02630198  RH  068%=      5-min Rain = 0
KHA3 140551Z 06008KT 26/20 A3006 RMK A01 T02630199  RH  068%=      5-min Rain = 0
KHA3 140552Z 06008KT 26/20 A3006 RMK A01 T02630198  RH  067%=      5-min Rain = 0
KHA3 140553Z 06007KT 26/20 A3006 RMK A01 T02640198  RH  067%=      5-min Rain = 0
KHA3 140554Z 06007KT 26/20 A3006 RMK A01 T02640198  RH  067%=      5-min Rain = 0
KHA3 140555Z 05008KT 26/20 A3006 RMK A01 T02640198  RH  067%=      5-min Rain = 0
KHA3 140556Z 06009KT 26/20 A3006 RMK A01 T02640198  RH  067%=      5-min Rain = 0
KHA3 140557Z 06008KT 26/20 A3006 RMK A01 T02640198  RH  067%=      5-min Rain = 0
KHA3 140558Z 06009KT 26/20 A3006 RMK A01 T02640198  RH  067%=      5-min Rain = 0
KHA3 140559Z 06008KT 26/20 A3006 RMK A01 T02640198  RH  067%=      5-min Rain = 0
KHA3 140600Z 06008KT 26/20 A3006 RMK A01 T02640198  RH  067%=      5-min Rain = 0
KHA3 140601Z 06009KT 26/20 A3006 RMK A01 T02640198  RH  067%=      5-min Rain = 0
KHA3 140602Z 06009KT 26/20 A3006 RMK A01 T02640198  RH  067%=      5-min Rain = 0
KHA3 140603Z 06009KT 27/20 A3006 RMK A01 T02650198  RH  067%=      5-min Rain = 0
KHA3 140604Z 06009KT 27/20 A3006 RMK A01 T02650198  RH  067%=      5-min Rain = 0
KHA3 140605Z 06009KT 27/20 A3006 RMK A01 T02650198  RH  067%=      5-min Rain = 0
KHA3 140606Z 06009KT 27/20 A3006 RMK A01 T02650198  RH  067%=      5-min Rain = 0
KHA3 140607Z 06010KT 27/20 A3006 RMK A01 T02660198  RH  066%=      5-min Rain = 0
KHA3 140608Z 06009KT 27/20 A3007 RMK A01 T02650198  RH  066%=      5-min Rain = 0
KHA3 140609Z 05009KT 27/20 A3007 RMK A01 T02650198  RH  066%=      5-min Rain = 0
KHA3 140610Z 05010KT 27/20 A3007 RMK A01 T02650198  RH  067%=      5-min Rain = 0
KHA3 140611Z 05009KT 27/20 A3007 RMK A01 T02650198  RH  067%=      5-min Rain = 0
KHA3 140612Z 05009KT 27/20 A3007 RMK A01 T02650198  RH  067%=      5-min Rain = 0
KHA3 140613Z 05010KT 26/20 A3007 RMK A01 T02640198  RH  067%=      5-min Rain = 0
KHA3 140614Z 05011KT 26/20 A3007 RMK A01 T02640197  RH  067%=      5-min Rain = 0
KHA3 140615Z 05009KT 26/20 A3007 RMK A01 T02640197  RH  067%=      5-min Rain = 0
KHA3 140616Z 05009KT 27/20 A3007 RMK A01 T02650198  RH  067%=      5-min Rain = 0
KHA3 140617Z 05009KT 27/20 A3007 RMK A01 T02650198  RH  067%=      5-min Rain = 0
KHA3 140618Z 05009KT 26/20 A3008 RMK A01 T02640198  RH  067%=      5-min Rain = 0
KHA3 140619Z 05009KT 26/20 A3008 RMK A01 T02640198  RH  067%=      5-min Rain = 0
KHA3 140620Z 04009KT 26/20 A3008 RMK A01 T02640197  RH  067%=      5-min Rain = 0
KHA3 140621Z 04008KT 26/20 A3008 RMK A01 T02640197  RH  067%=      5-min Rain = 0
KHA3 140622Z 04008KT 26/20 A3008 RMK A01 T02640197  RH  066%=      5-min Rain = 0
KHA3 140623Z 04008KT 26/20 A3008 RMK A01 T02640197  RH  066%=      5-min Rain = 0
KHA3 140624Z 05008KT 26/20 A3008 RMK A01 T02640197  RH  066%=      5-min Rain = 0
KHA3 140625Z 05008KT 27/20 A3008 RMK A01 T02650196  RH  066%=      5-min Rain = 0
KHA3 140626Z 05009KT 27/20 A3007 RMK A01 T02650196  RH  066%=      5-min Rain = 0
KHA3 140627Z 06009KT 27/20 A3007 RMK A01 T02650195  RH  065%=      5-min Rain = 0
KHA3 140628Z 06008KT 27/20 A3007 RMK A01 T02650195  RH  065%=      5-min Rain = 0
KHA3 140629Z 06007KT 27/20 A3007 RMK A01 T02660195  RH  065%=      5-min Rain = 0
KHA3 140630Z 05008KT 27/19 A3007 RMK A01 T02660194  RH  065%=      5-min Rain = 0
KHA3 140631Z 05009KT 27/19 A3007 RMK A01 T02650194  RH  065%=      5-min Rain = 0
KHA3 140632Z 06009KT 27/19 A3007 RMK A01 T02650193  RH  065%=      5-min Rain = 0
KHA3 140633Z 06008KT 27/19 A3007 RMK A01 T02650193  RH  064%=      5-min Rain = 0
KHA3 140634Z 06010KT 27/19 A3007 RMK A01 T02650192  RH  064%=      5-min Rain = 0
KHA3 140635Z 06008KT 27/19 A3007 RMK A01 T02650192  RH  064%=      5-min Rain = 0
KHA3 140636Z 06009KT 27/19 A3007 RMK A01 T02660193  RH  064%=      5-min Rain = 0
KHA3 140637Z 06009KT 27/19 A3007 RMK A01 T02660192  RH  064%=      5-min Rain = 0
KHA3 140638Z 05008KT 27/19 A3007 RMK A01 T02660192  RH  064%=      5-min Rain = 0
KHA3 140639Z 05009KT 27/19 A3007 RMK A01 T02660192  RH  064%=      5-min Rain = 0
KHA3 140640Z 06008KT 27/19 A3007 RMK A01 T02660192  RH  064%=      5-min Rain = 0
KHA3 140641Z 05008KT 27/19 A3007 RMK A01 T02660191  RH  064%=      5-min Rain = 0
KHA3 140642Z 05008KT 27/19 A3007 RMK A01 T02660192  RH  064%=      5-min Rain = 0
KHA3 140643Z 05008KT 27/19 A3007 RMK A01 T02650191  RH  064%=      5-min Rain = 0
KHA3 140644Z 05008KT 27/19 A3008 RMK A01 T02650191  RH  064%=      5-min Rain = 0
KHA3 140645Z 05008KT 27/19 A3008 RMK A01 T02650191  RH  064%=      5-min Rain = 0
KHA3 140646Z 05008KT 26/19 A3008 RMK A01 T02640191  RH  064%=      5-min Rain = 0
KHA3 140647Z 04008KT 26/19 A3008 RMK A01 T02640191  RH  064%=      5-min Rain = 0
KHA3 140648Z 05009KT 26/19 A3008 RMK A01 T02630191  RH  064%=      5-min Rain = 0
KHA3 140649Z 04009KT 26/19 A3008 RMK A01 T02630191  RH  064%=      5-min Rain = 0
KHA3 140650Z 04009KT 26/19 A3008 RMK A01 T02630190  RH  064%=      5-min Rain = 0
KHA3 140651Z 04008KT 26/19 A3008 RMK A01 T02630190  RH  064%=      5-min Rain = 0
KHA3 140652Z 04007KT 26/19 A3008 RMK A01 T02620190  RH  064%=      5-min Rain = 0
KHA3 140653Z 04008KT 26/19 A3008 RMK A01 T02630190  RH  064%=      5-min Rain = 0
KHA3 140654Z 04008KT 26/19 A3008 RMK A01 T02630190  RH  064%=      5-min Rain = 0
KHA3 140655Z 04007KT 26/19 A3008 RMK A01 T02630189  RH  064%=      5-min Rain = 0
KHA3 140656Z 04008KT 26/19 A3008 RMK A01 T02630190  RH  064%=      5-min Rain = 0
KHA3 140657Z 04008KT 26/19 A3008 RMK A01 T02620189  RH  064%=      5-min Rain = 0
KHA3 140658Z 04008KT 26/19 A3008 RMK A01 T02630189  RH  064%=      5-min Rain = 0
KHA3 140659Z 04008KT 26/19 A3008 RMK A01 T02630189  RH  064%=      5-min Rain = 0
KHA3 140700Z 04007KT 26/19 A3008 RMK A01 T02630189  RH  064%=      5-min Rain = 0
KHA3 140701Z 03009KT 26/19 A3008 RMK A01 T02630189  RH  064%=      5-min Rain = 0
KHA3 140702Z 04009KT 26/19 A3008 RMK A01 T02640189  RH  064%=      5-min Rain = 0
KHA3 140703Z 03009KT 26/19 A3008 RMK A01 T02640189  RH  063%=      5-min Rain = 0
KHA3 140704Z 03007KT 27/19 A3008 RMK A01 T02650189  RH  063%=      5-min Rain = 0
KHA3 140705Z 03008KT 27/19 A3008 RMK A01 T02650189  RH  063%=      5-min Rain = 0
KHA3 140706Z 03008KT 27/19 A3008 RMK A01 T02650188  RH  063%=      5-min Rain = 0
KHA3 140707Z 03008KT 27/19 A3008 RMK A01 T02650189  RH  063%=      5-min Rain = 0
KHA3 140708Z 03009KT 27/19 A3008 RMK A01 T02650188  RH  063%=      5-min Rain = 0
KHA3 140709Z 02008KT 27/19 A3008 RMK A01 T02660189  RH  062%=      5-min Rain = 0
KHA3 140710Z 03009KT 27/19 A3008 RMK A01 T02660189  RH  062%=      5-min Rain = 0
KHA3 140711Z 03009KT 27/19 A3008 RMK A01 T02660189  RH  062%=      5-min Rain = 0
KHA3 140712Z 03009KT 27/19 A3007 RMK A01 T02670189  RH  062%=      5-min Rain = 0
KHA3 140713Z 03008KT 27/19 A3007 RMK A01 T02660189  RH  062%=      5-min Rain = 0
KHA3 140714Z 02008KT 27/19 A3007 RMK A01 T02660189  RH  062%=      5-min Rain = 0
KHA3 140715Z 03008KT 27/19 A3007 RMK A01 T02660189  RH  063%=      5-min Rain = 0
KHA3 140716Z 03011KT 27/19 A3007 RMK A01 T02660189  RH  063%=      5-min Rain = 0
KHA3 140717Z 03011KT 27/19 A3007 RMK A01 T02650189  RH  063%=      5-min Rain = 0
KHA3 140718Z 03010KT 27/19 A3007 RMK A01 T02650189  RH  063%=      5-min Rain = 0
KHA3 140719Z 03009KT 27/19 A3007 RMK A01 T02650189  RH  063%=      5-min Rain = 0
KHA3 140720Z 04009KT 27/19 A3007 RMK A01 T02650189  RH  063%=      5-min Rain = 0
KHA3 140721Z 04009KT 27/19 A3007 RMK A01 T02650189  RH  063%=      5-min Rain = 0
KHA3 140722Z 04009KT 27/19 A3007 RMK A01 T02650189  RH  063%=      5-min Rain = 0
KHA3 140723Z 05008KT 26/19 A3007 RMK A01 T02640189  RH  063%=      5-min Rain = 0
KHA3 140724Z 05008KT 26/19 A3007 RMK A01 T02640189  RH  063%=      5-min Rain = 0
KHA3 140725Z 05008KT 26/19 A3007 RMK A01 T02640189  RH  064%=      5-min Rain = 0
KHA3 140726Z 05008KT 26/19 A3007 RMK A01 T02630189  RH  064%=      5-min Rain = 0
KHA3 140727Z 05008KT 26/19 A3007 RMK A01 T02630189  RH  064%=      5-min Rain = 0
KHA3 140728Z 05009KT 26/19 A3007 RMK A01 T02630189  RH  064%=      5-min Rain = 0
KHA3 140729Z 05007KT 26/19 A3007 RMK A01 T02620189  RH  064%=      5-min Rain = 0
KHA3 140730Z 05008KT 26/19 A3007 RMK A01 T02620189  RH  064%=      5-min Rain = 0
KHA3 140731Z 06007KT 26/19 A3007 RMK A01 T02620189  RH  064%=      5-min Rain = 0
KHA3 140732Z 06007KT 26/19 A3007 RMK A01 T02620189  RH  064%=      5-min Rain = 0
KHA3 140733Z 05007KT 26/19 A3007 RMK A01 T02620189  RH  064%=      5-min Rain = 0
KHA3 140734Z 06007KT 26/19 A3006 RMK A01 T02610189  RH  064%=      5-min Rain = 0
KHA3 140735Z 07006KT 26/19 A3006 RMK A01 T02610189  RH  064%=      5-min Rain = 0
KHA3 140736Z 06006KT 26/19 A3006 RMK A01 T02610189  RH  065%=      5-min Rain = 0
KHA3 140737Z 06006KT 26/19 A3006 RMK A01 T02600189  RH  065%=      5-min Rain = 0
KHA3 140738Z 05006KT 26/19 A3006 RMK A01 T02590189  RH  065%=      5-min Rain = 0
KHA3 140739Z 05006KT 26/19 A3007 RMK A01 T02590189  RH  065%=      5-min Rain = 0
KHA3 140740Z 05007KT 26/19 A3007 RMK A01 T02580189  RH  065%=      5-min Rain = 0
KHA3 140741Z 04007KT 26/19 A3007 RMK A01 T02580189  RH  066%=      5-min Rain = 0
KHA3 140742Z 04007KT 26/19 A3007 RMK A01 T02580189  RH  066%=      5-min Rain = 0
KHA3 140743Z 04007KT 26/19 A3007 RMK A01 T02570189  RH  066%=      5-min Rain = 0
KHA3 140744Z 04007KT 26/19 A3007 RMK A01 T02570189  RH  066%=      5-min Rain = 0
KHA3 140745Z 05007KT 26/19 A3007 RMK A01 T02570189  RH  066%=      5-min Rain = 0
KHA3 140746Z 05007KT 26/19 A3007 RMK A01 T02570189  RH  066%=      5-min Rain = 0
KHA3 140747Z 05007KT 26/19 A3006 RMK A01 T02570189  RH  066%=      5-min Rain = 0
KHA3 140748Z 05007KT 26/19 A3006 RMK A01 T02570189  RH  066%=      5-min Rain = 0
KHA3 140749Z 05007KT 26/19 A3006 RMK A01 T02570189  RH  066%=      5-min Rain = 0
KHA3 140750Z 05006KT 26/19 A3007 RMK A01 T02570189  RH  066%=      5-min Rain = 0
KHA3 140751Z 05007KT 26/19 A3007 RMK A01 T02570189  RH  066%=      5-min Rain = 0
KHA3 140752Z 05007KT 26/19 A3007 RMK A01 T02570189  RH  066%=      5-min Rain = 0
KHA3 140753Z 05007KT 26/19 A3007 RMK A01 T02560189  RH  066%=      5-min Rain = 0
KHA3 140754Z 05006KT 26/19 A3007 RMK A01 T02560189  RH  066%=      5-min Rain = 0
KHA3 140755Z 05007KT 26/19 A3007 RMK A01 T02560189  RH  066%=      5-min Rain = 0
KHA3 140756Z 05006KT 26/19 A3007 RMK A01 T02560189  RH  066%=      5-min Rain = 0
KHA3 140757Z 05006KT 26/19 A3006 RMK A01 T02560189  RH  066%=      5-min Rain = 0
KHA3 140758Z 06006KT 26/19 A3006 RMK A01 T02560189  RH  066%=      5-min Rain = 0
KHA3 140759Z 06005KT 26/19 A3006 RMK A01 T02560189  RH  066%=      5-min Rain = 0
KHA3 140800Z 05006KT 26/19 A3006 RMK A01 T02560189  RH  066%=      5-min Rain = 0
KHA3 140801Z 06005KT 26/19 A3006 RMK A01 T02560189  RH  066%=      5-min Rain = 0
KHA3 140802Z 06005KT 26/19 A3006 RMK A01 T02560189  RH  067%=      5-min Rain = 0
KHA3 140803Z 06006KT 26/19 A3005 RMK A01 T02550188  RH  067%=      5-min Rain = 0
KHA3 140804Z 06005KT 26/19 A3005 RMK A01 T02550189  RH  067%=      5-min Rain = 0
KHA3 140805Z 06005KT 26/19 A3005 RMK A01 T02550189  RH  067%=      5-min Rain = 0
KHA3 140806Z 07006KT 26/19 A3006 RMK A01 T02550189  RH  067%=      5-min Rain = 0
KHA3 140807Z 07006KT 26/19 A3006 RMK A01 T02550189  RH  067%=      5-min Rain = 0
KHA3 140808Z 07006KT 26/19 A3006 RMK A01 T02550189  RH  067%=      5-min Rain = 0
KHA3 140809Z 07006KT 26/19 A3006 RMK A01 T02550189  RH  067%=      5-min Rain = 0
KHA3 140810Z 07006KT 25/19 A3006 RMK A01 T02540189  RH  067%=      5-min Rain = 0
KHA3 140811Z 06006KT 25/19 A3006 RMK A01 T02540188  RH  067%=      5-min Rain = 0
KHA3 140812Z 06006KT 25/19 A3006 RMK A01 T02540188  RH  067%=      5-min Rain = 0
KHA3 140813Z 06006KT 25/19 A3006 RMK A01 T02540189  RH  067%=      5-min Rain = 0
KHA3 140814Z 06006KT 25/19 A3006 RMK A01 T02540188  RH  067%=      5-min Rain = 0
KHA3 140815Z 07006KT 25/19 A3006 RMK A01 T02540188  RH  067%=      5-min Rain = 0
KHA3 140816Z 06006KT 25/19 A3005 RMK A01 T02540188  RH  067%=      5-min Rain = 0
KHA3 140817Z 06006KT 25/19 A3005 RMK A01 T02540188  RH  067%=      5-min Rain = 0
KHA3 140818Z 06007KT 25/19 A3005 RMK A01 T02540188  RH  067%=      5-min Rain = 0
KHA3 140819Z 05007KT 25/19 A3006 RMK A01 T02540188  RH  067%=      5-min Rain = 0
KHA3 140820Z 05008KT 25/19 A3006 RMK A01 T02540188  RH  067%=      5-min Rain = 0
KHA3 140821Z 05008KT 25/19 A3006 RMK A01 T02540189  RH  067%=      5-min Rain = 0
KHA3 140822Z 05008KT 25/19 A3006 RMK A01 T02540189  RH  067%=      5-min Rain = 0
KHA3 140823Z 05008KT 25/19 A3006 RMK A01 T02540189  RH  067%=      5-min Rain = 0
KHA3 140824Z 05007KT 25/19 A3006 RMK A01 T02540189  RH  067%=      5-min Rain = 0
KHA3 140825Z 05008KT 25/19 A3006 RMK A01 T02540189  RH  067%=      5-min Rain = 0
KHA3 140826Z 05008KT 26/19 A3006 RMK A01 T02550190  RH  067%=      5-min Rain = 0
KHA3 140827Z 06007KT 26/19 A3006 RMK A01 T02560190  RH  067%=      5-min Rain = 0
KHA3 140828Z 06007KT 26/19 A3006 RMK A01 T02560190  RH  067%=      5-min Rain = 0
KHA3 140829Z 06007KT 26/19 A3006 RMK A01 T02560189  RH  067%=      5-min Rain = 0
KHA3 140830Z 06006KT 26/19 A3006 RMK A01 T02560189  RH  067%=      5-min Rain = 0
KHA3 140831Z 06007KT 26/19 A3006 RMK A01 T02560189  RH  066%=      5-min Rain = 0
KHA3 140832Z 06006KT 26/19 A3006 RMK A01 T02570189  RH  066%=      5-min Rain = 0
KHA3 140833Z 06007KT 26/19 A3006 RMK A01 T02570190  RH  066%=      5-min Rain = 0
KHA3 140834Z 06008KT 26/19 A3006 RMK A01 T02570189  RH  066%=      5-min Rain = 0
KHA3 140835Z 06008KT 26/19 A3007 RMK A01 T02580190  RH  066%=      5-min Rain = 0
KHA3 140836Z 05009KT 26/19 A3007 RMK A01 T02580189  RH  066%=      5-min Rain = 0
KHA3 140837Z 05008KT 26/19 A3007 RMK A01 T02580190  RH  066%=      5-min Rain = 0
KHA3 140838Z 04008KT 26/19 A3007 RMK A01 T02590190  RH  066%=      5-min Rain = 0
KHA3 140839Z 04009KT 26/19 A3007 RMK A01 T02580190  RH  066%=      5-min Rain = 0
KHA3 140840Z 03010KT 26/19 A3007 RMK A01 T02590190  RH  066%=      5-min Rain = 0
KHA3 140841Z 03009KT 26/19 A3007 RMK A01 T02590190  RH  066%=      5-min Rain = 0
KHA3 140842Z 03009KT 26/19 A3007 RMK A01 T02590190  RH  066%=      5-min Rain = 0
KHA3 140843Z 02009KT 26/19 A3007 RMK A01 T02590190  RH  066%=      5-min Rain = 0
KHA3 140844Z 02011KT 26/19 A3007 RMK A01 T02590190  RH  066%=      5-min Rain = 0
KHA3 140845Z 02008KT 26/19 A3007 RMK A01 T02590190  RH  066%=      5-min Rain = 0
KHA3 140846Z 03009KT 26/19 A3007 RMK A01 T02590190  RH  066%=      5-min Rain = 0
KHA3 140847Z 03008KT 26/19 A3007 RMK A01 T02590190  RH  066%=      5-min Rain = 0
KHA3 140848Z 03008KT 26/19 A3007 RMK A01 T02590191  RH  066%=      5-min Rain = 0
KHA3 140849Z 04008KT 26/19 A3007 RMK A01 T02590191  RH  066%=      5-min Rain = 0
KHA3 140850Z 04008KT 26/19 A3007 RMK A01 T02590191  RH  066%=      5-min Rain = 0
KHA3 140851Z 03008KT 26/19 A3007 RMK A01 T02590191  RH  066%=      5-min Rain = 0
KHA3 140852Z 03008KT 26/19 A3007 RMK A01 T02580190  RH  066%=      5-min Rain = 0
KHA3 140853Z 03007KT 26/19 A3007 RMK A01 T02580191  RH  066%=      5-min Rain = 0
KHA3 140854Z 03007KT 26/19 A3007 RMK A01 T02580191  RH  066%=      5-min Rain = 0
KHA3 140855Z 04009KT 26/19 A3007 RMK A01 T02580191  RH  066%=      5-min Rain = 0
KHA3 140856Z 03008KT 26/19 A3007 RMK A01 T02580191  RH  066%=      5-min Rain = 0
KHA3 140857Z 04008KT 26/19 A3007 RMK A01 T02580190  RH  066%=      5-min Rain = 0
KHA3 140858Z 04007KT 26/19 A3007 RMK A01 T02570191  RH  067%=      5-min Rain = 0
KHA3 140859Z 04007KT 26/19 A3007 RMK A01 T02570191  RH  067%=      5-min Rain = 0
KHA3 140900Z 04007KT 26/19 A3007 RMK A01 T02560191  RH  067%=      5-min Rain = 0
KHA3 140901Z 03009KT 26/19 A3007 RMK A01 T02560191  RH  067%=      5-min Rain = 0
KHA3 140902Z 03010KT 26/19 A3007 RMK A01 T02550191  RH  068%=      5-min Rain = 0
KHA3 140903Z 03009KT 26/19 A3007 RMK A01 T02550192  RH  068%=      5-min Rain = 0
KHA3 140904Z 03007KT 26/19 A3007 RMK A01 T02550192  RH  068%=      5-min Rain = 0
KHA3 140905Z 03009KT 25/19 A3007 RMK A01 T02540192  RH  069%=      5-min Rain = 0
KHA3 140906Z 03008KT 25/19 A3007 RMK A01 T02540193  RH  069%=      5-min Rain = 0
KHA3 140907Z 03009KT 25/19 A3007 RMK A01 T02530192  RH  069%=      5-min Rain = 0
KHA3 140908Z 03010KT 25/19 A3007 RMK A01 T02530193  RH  069%=      5-min Rain = 0
KHA3 140909Z 03009KT 25/19 A3007 RMK A01 T02520193  RH  070%=      5-min Rain = 0
KHA3 140910Z 03008KT 25/19 A3007 RMK A01 T02520193  RH  070%=      5-min Rain = 0
KHA3 140911Z 03009KT 25/19 A3007 RMK A01 T02510193  RH  070%=      5-min Rain = 0
KHA3 140912Z 03010KT 25/19 A3007 RMK A01 T02510193  RH  070%=      5-min Rain = 0
KHA3 140913Z 03009KT 25/19 A3007 RMK A01 T02500193  RH  070%=      5-min Rain = 0
KHA3 140914Z 03009KT 25/19 A3007 RMK A01 T02500192  RH  070%=      5-min Rain = 0
KHA3 140915Z 03009KT 25/19 A3007 RMK A01 T02500193  RH  071%=      5-min Rain = 0
KHA3 140916Z 03010KT 25/19 A3007 RMK A01 T02490193  RH  071%=      5-min Rain = 0
KHA3 140917Z 03009KT 25/19 A3007 RMK A01 T02490192  RH  071%=      5-min Rain = 0
KHA3 140918Z 03010KT 25/19 A3007 RMK A01 T02490193  RH  071%=      5-min Rain = 0
KHA3 140919Z 03010KT 25/19 A3007 RMK A01 T02480192  RH  071%=      5-min Rain = 0
KHA3 140920Z 03010KT 25/19 A3007 RMK A01 T02480192  RH  071%=      5-min Rain = 0
KHA3 140921Z 03010KT 25/19 A3007 RMK A01 T02470192  RH  071%=      5-min Rain = 0
KHA3 140922Z 03010KT 25/19 A3007 RMK A01 T02470192  RH  071%=      5-min Rain = 0
KHA3 140923Z 03010KT 25/19 A3007 RMK A01 T02470192  RH  072%=      5-min Rain = 0
KHA3 140924Z 03011KT 25/19 A3007 RMK A01 T02470193  RH  072%=      5-min Rain = 0
KHA3 140925Z 03010KT 25/19 A3007 RMK A01 T02470193  RH  072%=      5-min Rain = 0
KHA3 140926Z 03008KT 25/19 A3007 RMK A01 T02460193  RH  072%=      5-min Rain = 0
KHA3 140927Z 03007KT 25/19 A3007 RMK A01 T02460193  RH  072%=      5-min Rain = 0
KHA3 140928Z 03008KT 25/19 A3007 RMK A01 T02450193  RH  072%=      5-min Rain = 0
KHA3 140929Z 03008KT 25/19 A3007 RMK A01 T02450193  RH  073%=      5-min Rain = 0
KHA3 140930Z 03008KT 24/19 A3007 RMK A01 T02440193  RH  073%=      5-min Rain = 0
KHA3 140931Z 02011KT 24/19 A3007 RMK A01 T02440193  RH  073%=      5-min Rain = 0
KHA3 140932Z 03011KT 24/19 A3007 RMK A01 T02430194  RH  074%=      5-min Rain = 0
KHA3 140933Z 02010KT 24/19 A3007 RMK A01 T02430194  RH  074%=      5-min Rain = 0
KHA3 140934Z 02011KT 24/19 A3007 RMK A01 T02430194  RH  074%=      5-min Rain = 0
KHA3 140935Z 03012KT 24/20 A3007 RMK A01 T02430195  RH  074%=      5-min Rain = 0
KHA3 140936Z 03012KT 24/20 A3007 RMK A01 T02430195  RH  075%=      5-min Rain = 0
KHA3 140937Z 03011KT 24/20 A3007 RMK A01 T02430195  RH  075%=      5-min Rain = 0
KHA3 140938Z 03010KT 24/20 A3008 RMK A01 T02430195  RH  075%=      5-min Rain = 0
KHA3 140939Z 03009KT 24/20 A3008 RMK A01 T02420195  RH  075%=      5-min Rain = 0
KHA3 140940Z 03009KT 24/20 A3008 RMK A01 T02410195  RH  075%=      5-min Rain = 0
KHA3 140941Z 03009KT 24/20 A3008 RMK A01 T02400195  RH  076%=      5-min Rain = 0
KHA3 140942Z 03011KT 24/20 A3008 RMK A01 T02410195  RH  076%=      5-min Rain = 0
KHA3 140943Z 03010KT 24/20 A3008 RMK A01 T02410195  RH  076%=      5-min Rain = 0
KHA3 140944Z 03010KT 24/20 A3008 RMK A01 T02400195  RH  076%=      5-min Rain = 0
KHA3 140945Z 03010KT 24/20 A3008 RMK A01 T02400196  RH  076%=      5-min Rain = 0
KHA3 140946Z 03011KT 24/20 A3008 RMK A01 T02400196  RH  076%=      5-min Rain = 0
KHA3 140947Z 03010KT 24/20 A3008 RMK A01 T02400196  RH  076%=      5-min Rain = 0
KHA3 140948Z 02010KT 24/20 A3008 RMK A01 T02400196  RH  076%=      5-min Rain = 0
KHA3 140949Z 02009KT 24/20 A3008 RMK A01 T02390196  RH  077%=      5-min Rain = 0
KHA3 140950Z 02010KT 24/20 A3008 RMK A01 T02390196  RH  077%=      5-min Rain = 0
KHA3 140951Z 02011KT 24/20 A3008 RMK A01 T02390195  RH  077%=      5-min Rain = 0
KHA3 140952Z 02013KT 24/20 A3008 RMK A01 T02390196  RH  077%=      5-min Rain = 0
KHA3 140953Z 02012KT 24/20 A3008 RMK A01 T02390196  RH  077%=      5-min Rain = 0
KHA3 140954Z 03012KT 24/20 A3009 RMK A01 T02390196  RH  077%=      5-min Rain = 0
KHA3 140955Z 02010KT 24/20 A3009 RMK A01 T02390195  RH  077%=      5-min Rain = 0
KHA3 140956Z 03012KT 24/20 A3009 RMK A01 T02390195  RH  077%=      5-min Rain = 0
KHA3 140957Z 03013KT 24/20 A3009 RMK A01 T02390195  RH  076%=      5-min Rain = 0
KHA3 140958Z 03012KT 24/19 A3009 RMK A01 T02390194  RH  076%=      5-min Rain = 0
KHA3 140959Z 03009KT 24/20 A3009 RMK A01 T02390195  RH  076%=      5-min Rain = 0
KHA3 141000Z 03011KT 24/19 A3009 RMK A01 T02390194  RH  076%=      5-min Rain = 0
KHA3 141001Z 02011KT 24/19 A3009 RMK A01 T02390194  RH  076%=      5-min Rain = 0
KHA3 141002Z 03013KT 24/19 A3009 RMK A01 T02390194  RH  076%=      5-min Rain = 0
KHA3 141003Z 02014KT 24/19 A3009 RMK A01 T02380193  RH  076%=      5-min Rain = 0
KHA3 141004Z 03012KT 24/19 A3009 RMK A01 T02380193  RH  076%=      5-min Rain = 0
KHA3 141005Z 02013KT 24/19 A3009 RMK A01 T02380193  RH  076%=      5-min Rain = 0
KHA3 141006Z 03015KT 24/19 A3009 RMK A01 T02380192  RH  075%=      5-min Rain = 0
KHA3 141007Z 03013KT 24/19 A3009 RMK A01 T02380192  RH  075%=      5-min Rain = 0
KHA3 141008Z 03013KT 24/19 A3009 RMK A01 T02370191  RH  075%=      5-min Rain = 0
KHA3 141009Z 03011KT 24/19 A3009 RMK A01 T02370191  RH  075%=      5-min Rain = 0
KHA3 141010Z 03012KT 24/19 A3009 RMK A01 T02370190  RH  075%=      5-min Rain = 0
KHA3 141011Z 02015KT 24/19 A3009 RMK A01 T02370190  RH  075%=      5-min Rain = 0
KHA3 141012Z 03014KT 24/19 A3009 RMK A01 T02360188  RH  074%=      5-min Rain = 0
KHA3 141013Z 03013KT 24/19 A3009 RMK A01 T02370189  RH  074%=      5-min Rain = 0
KHA3 141014Z 03012KT 24/19 A3009 RMK A01 T02370189  RH  075%=      5-min Rain = 0
KHA3 141015Z 03011KT 24/19 A3009 RMK A01 T02360188  RH  075%=      5-min Rain = 0
KHA3 141016Z 03012KT 24/19 A3009 RMK A01 T02360189  RH  075%=      5-min Rain = 0
KHA3 141017Z 03013KT 24/19 A3009 RMK A01 T02360189  RH  075%=      5-min Rain = 0
KHA3 141018Z 03012KT 24/19 A3009 RMK A01 T02350188  RH  075%=      5-min Rain = 0
KHA3 141019Z 02011KT 24/19 A3009 RMK A01 T02350188  RH  075%=      5-min Rain = 0
KHA3 141020Z 03012KT 23/19 A3009 RMK A01 T02340188  RH  075%=      5-min Rain = 0
KHA3 141021Z 03013KT 23/19 A3009 RMK A01 T02340188  RH  075%=      5-min Rain = 0
KHA3 141022Z 03013KT 23/19 A3009 RMK A01 T02340188  RH  075%=      5-min Rain = 0
KHA3 141023Z 03013KT 23/19 A3009 RMK A01 T02340188  RH  075%=      5-min Rain = 0
KHA3 141024Z 03011KT 23/19 A3009 RMK A01 T02330187  RH  075%=      5-min Rain = 0
KHA3 141025Z 03010KT 23/19 A301 RMK A01 T02320187  RH  076%=      5-min Rain = 0
KHA3 141026Z 03011KT 23/19 A301 RMK A01 T02320187  RH  076%=      5-min Rain = 0
KHA3 141027Z 03014KT 23/19 A3009 RMK A01 T02310186  RH  076%=      5-min Rain = 0
KHA3 141028Z 02012KT 23/19 A301 RMK A01 T02310186  RH  076%=      5-min Rain = 0
KHA3 141029Z 03013KT 23/19 A301 RMK A01 T02310185  RH  076%=      5-min Rain = 0
KHA3 141030Z 03013KT 23/19 A301 RMK A01 T02300185  RH  076%=      5-min Rain = 0
KHA3 141031Z 03013KT 23/19 A301 RMK A01 T02300185  RH  076%=      5-min Rain = 0
KHA3 141032Z 03012KT 23/19 A301 RMK A01 T02300185  RH  076%=      5-min Rain = 0
KHA3 141033Z 03012KT 23/19 A301 RMK A01 T02300185  RH  076%=      5-min Rain = 0
KHA3 141034Z 02010KT 23/19 A301 RMK A01 T02300185  RH  076%=      5-min Rain = 0
KHA3 141035Z 02013KT 23/18 A301 RMK A01 T02290184  RH  076%=      5-min Rain = 0
KHA3 141036Z 02011KT 23/19 A301 RMK A01 T02290185  RH  076%=      5-min Rain = 0
KHA3 141037Z 03012KT 23/18 A3009 RMK A01 T02280184  RH  076%=      5-min Rain = 0
KHA3 141038Z 02011KT 23/18 A3009 RMK A01 T02280184  RH  076%=      5-min Rain = 0
KHA3 141039Z 03010KT 23/18 A3009 RMK A01 T02270184  RH  076%=      5-min Rain = 0
KHA3 141040Z 02011KT 23/18 A301 RMK A01 T02260183  RH  076%=      5-min Rain = 0
KHA3 141041Z 02012KT 23/18 A301 RMK A01 T02270183  RH  077%=      5-min Rain = 0
KHA3 141042Z 02011KT 23/18 A301 RMK A01 T02260183  RH  077%=      5-min Rain = 0
KHA3 141043Z 02012KT 23/18 A301 RMK A01 T02260183  RH  077%=      5-min Rain = 0
KHA3 141044Z 02010KT 23/18 A301 RMK A01 T02260183  RH  077%=      5-min Rain = 0
KHA3 141045Z 02009KT 23/18 A301 RMK A01 T02260184  RH  077%=      5-min Rain = 0
KHA3 141046Z 01010KT 23/18 A301 RMK A01 T02260183  RH  077%=      5-min Rain = 0
KHA3 141047Z 02009KT 23/18 A301 RMK A01 T02250183  RH  077%=      5-min Rain = 0
KHA3 141048Z 02009KT 23/18 A301 RMK A01 T02250183  RH  077%=      5-min Rain = 0
KHA3 141049Z 02009KT 22/18 A301 RMK A01 T02240182  RH  077%=      5-min Rain = 0
KHA3 141050Z 02010KT 22/18 A301 RMK A01 T02240183  RH  077%=      5-min Rain = 0
KHA3 141051Z 02008KT 22/18 A3011 RMK A01 T02240183  RH  077%=      5-min Rain = 0
KHA3 141052Z 02010KT 22/18 A3011 RMK A01 T02240183  RH  077%=      5-min Rain = 0
KHA3 141053Z 02012KT 22/18 A3011 RMK A01 T02240182  RH  077%=      5-min Rain = 0
KHA3 141054Z 02010KT 22/18 A3011 RMK A01 T02240183  RH  077%=      5-min Rain = 0
KHA3 141055Z 02010KT 22/18 A3011 RMK A01 T02230182  RH  077%=      5-min Rain = 0
KHA3 141056Z 02009KT 22/18 A301 RMK A01 T02230182  RH  077%=      5-min Rain = 0
KHA3 141057Z 02009KT 22/18 A301 RMK A01 T02230182  RH  077%=      5-min Rain = 0
KHA3 141058Z 02008KT 22/18 A301 RMK A01 T02230182  RH  078%=      5-min Rain = 0
KHA3 141059Z 02009KT 22/18 A3011 RMK A01 T02220182  RH  078%=      5-min Rain = 0
KHA3 141100Z 02008KT 22/18 A3011 RMK A01 T02220182  RH  078%=      5-min Rain = 0
KHA3 141101Z 02010KT 22/18 A3011 RMK A01 T02220182  RH  078%=      5-min Rain = 0
KHA3 141102Z 02008KT 22/18 A3011 RMK A01 T02220181  RH  078%=      5-min Rain = 0
KHA3 141103Z 02009KT 22/18 A3011 RMK A01 T02220181  RH  078%=      5-min Rain = 0
KHA3 141104Z 02008KT 22/18 A301 RMK A01 T02210182  RH  078%=      5-min Rain = 0
KHA3 141105Z 02010KT 22/18 A301 RMK A01 T02210181  RH  078%=      5-min Rain = 0
KHA3 141106Z 02010KT 22/18 A3011 RMK A01 T02210181  RH  078%=      5-min Rain = 0
KHA3 141107Z 02008KT 22/18 A3011 RMK A01 T02210181  RH  078%=      5-min Rain = 0
KHA3 141108Z 02009KT 22/18 A3011 RMK A01 T02210181  RH  078%=      5-min Rain = 0
KHA3 141109Z 02009KT 22/18 A3011 RMK A01 T02210181  RH  078%=      5-min Rain = 0
KHA3 141110Z 02009KT 22/18 A3011 RMK A01 T02200181  RH  078%=      5-min Rain = 0
KHA3 141111Z 02008KT 22/18 A3011 RMK A01 T02210181  RH  078%=      5-min Rain = 0
KHA3 141112Z 03008KT 22/18 A3011 RMK A01 T02210181  RH  078%=      5-min Rain = 0
KHA3 141113Z 03009KT 22/18 A3011 RMK A01 T02200181  RH  078%=      5-min Rain = 0
KHA3 141114Z 03007KT 22/18 A3011 RMK A01 T02200181  RH  078%=      5-min Rain = 0
KHA3 141115Z 03006KT 22/18 A301 RMK A01 T02200181  RH  078%=      5-min Rain = 0
KHA3 141116Z 03007KT 22/18 A301 RMK A01 T02200181  RH  079%=      5-min Rain = 0
KHA3 141117Z 03006KT 22/18 A301 RMK A01 T02190180  RH  079%=      5-min Rain = 0
KHA3 141118Z 03006KT 22/18 A301 RMK A01 T02190181  RH  079%=      5-min Rain = 0
KHA3 141119Z 03007KT 22/18 A301 RMK A01 T02180180  RH  079%=      5-min Rain = 0
KHA3 141120Z 03006KT 22/18 A301 RMK A01 T02180180  RH  079%=      5-min Rain = 0
KHA3 141121Z 02008KT 22/18 A301 RMK A01 T02180180  RH  079%=      5-min Rain = 0
KHA3 141122Z 02007KT 22/18 A301 RMK A01 T02180180  RH  079%=      5-min Rain = 0
KHA3 141123Z 02007KT 22/18 A301 RMK A01 T02180181  RH  079%=      5-min Rain = 0
KHA3 141124Z 02007KT 22/18 A301 RMK A01 T02170180  RH  079%=      5-min Rain = 0
KHA3 141125Z 02008KT 22/18 A301 RMK A01 T02180181  RH  079%=      5-min Rain = 0
KHA3 141126Z 02006KT 22/18 A301 RMK A01 T02170180  RH  079%=      5-min Rain = 0
KHA3 141127Z 02007KT 22/18 A301 RMK A01 T02170180  RH  080%=      5-min Rain = 0
KHA3 141128Z 02007KT 22/18 A301 RMK A01 T02170180  RH  080%=      5-min Rain = 0
KHA3 141129Z 02007KT 22/18 A301 RMK A01 T02170180  RH  080%=      5-min Rain = 0
KHA3 141130Z 02006KT 22/18 A301 RMK A01 T02160180  RH  080%=      5-min Rain = 0
KHA3 141131Z 02006KT 22/18 A301 RMK A01 T02160180  RH  080%=      5-min Rain = 0
KHA3 141132Z 02007KT 22/18 A301 RMK A01 T02160180  RH  080%=      5-min Rain = 0
KHA3 141133Z 02006KT 22/18 A301 RMK A01 T02160180  RH  080%=      5-min Rain = 0
KHA3 141134Z 02006KT 22/18 A301 RMK A01 T02160180  RH  080%=      5-min Rain = 0
KHA3 141135Z 02005KT 22/18 A301 RMK A01 T02160180  RH  080%=      5-min Rain = 0
KHA3 141136Z 01005KT 22/18 A301 RMK A01 T02150180  RH  080%=      5-min Rain = 0
KHA3 141137Z 01006KT 22/18 A301 RMK A01 T02150180  RH  081%=      5-min Rain = 0
KHA3 141138Z 01006KT 22/18 A301 RMK A01 T02150180  RH  081%=      5-min Rain = 0
KHA3 141139Z 01008KT 22/18 A301 RMK A01 T02150181  RH  081%=      5-min Rain = 0
KHA3 141140Z 01008KT 22/18 A301 RMK A01 T02150181  RH  081%=      5-min Rain = 0
KHA3 141141Z 01008KT 22/18 A301 RMK A01 T02150180  RH  081%=      5-min Rain = 0
KHA3 141142Z 01008KT 22/18 A301 RMK A01 T02150180  RH  080%=      5-min Rain = 0
KHA3 141143Z 01007KT 22/18 A301 RMK A01 T02150180  RH  080%=      5-min Rain = 0
KHA3 141144Z 00008KT 22/18 A3011 RMK A01 T02150180  RH  081%=      5-min Rain = 0
KHA3 141145Z 01008KT 21/18 A3011 RMK A01 T02140180  RH  081%=      5-min Rain = 0
KHA3 141146Z 00009KT 21/18 A3011 RMK A01 T02140180  RH  081%=      5-min Rain = 0
KHA3 141147Z 00010KT 21/18 A3011 RMK A01 T02140180  RH  081%=      5-min Rain = 0
KHA3 141148Z 00008KT 21/18 A3011 RMK A01 T02140180  RH  081%=      5-min Rain = 0
KHA3 141149Z 01009KT 21/18 A3011 RMK A01 T02140180  RH  081%=      5-min Rain = 0
KHA3 141150Z 00008KT 21/18 A3011 RMK A01 T02140180  RH  081%=      5-min Rain = 0
KHA3 141151Z 00009KT 21/18 A3011 RMK A01 T02140180  RH  081%=      5-min Rain = 0
KHA3 141152Z 00009KT 21/18 A3011 RMK A01 T02140180  RH  081%=      5-min Rain = 0
KHA3 141153Z 00009KT 21/18 A3011 RMK A01 T02140180  RH  081%=      5-min Rain = 0
KHA3 141154Z 00009KT 21/18 A3011 RMK A01 T02140180  RH  081%=      5-min Rain = 0
KHA3 141155Z 36009KT 21/18 A3011 RMK A01 T02140180  RH  081%=      5-min Rain = 0
KHA3 141156Z 00010KT 21/18 A3011 RMK A01 T02140180  RH  081%=      5-min Rain = 0
KHA3 141157Z 01009KT 21/18 A3012 RMK A01 T02140180  RH  081%=      5-min Rain = 0
KHA3 141158Z 01008KT 21/18 A3012 RMK A01 T02140180  RH  081%=      5-min Rain = 0
KHA3 141159Z 00008KT 21/18 A3012 RMK A01 T02140180  RH  081%=      5-min Rain = 0
KHA3 141200Z 01007KT 21/18 A3012 RMK A01 T02140180  RH  081%=      5-min Rain = 0
KHA3 141201Z 00007KT 21/18 A3012 RMK A01 T02140180  RH  081%=      5-min Rain = 0
KHA3 141202Z 01008KT 21/18 A3012 RMK A01 T02130180  RH  081%=      5-min Rain = 0
KHA3 141203Z 00008KT 21/18 A3012 RMK A01 T02130180  RH  081%=      5-min Rain = 0
KHA3 141204Z 00008KT 21/18 A3012 RMK A01 T02130180  RH  081%=      5-min Rain = 0
KHA3 141205Z 00009KT 21/18 A3012 RMK A01 T02130180  RH  081%=      5-min Rain = 0
KHA3 141206Z 00010KT 21/18 A3012 RMK A01 T02130180  RH  081%=      5-min Rain = 0
KHA3 141207Z 00009KT 21/18 A3012 RMK A01 T02130180  RH  081%=      5-min Rain = 0
KHA3 141208Z 00009KT 21/18 A3012 RMK A01 T02130179  RH  081%=      5-min Rain = 0
KHA3 141209Z 01009KT 21/18 A3012 RMK A01 T02130179  RH  081%=      5-min Rain = 0
KHA3 141210Z 00009KT 21/18 A3012 RMK A01 T02130179  RH  081%=      5-min Rain = 0
KHA3 141211Z 36008KT 21/18 A3012 RMK A01 T02130179  RH  081%=      5-min Rain = 0
KHA3 141212Z 36008KT 21/18 A3012 RMK A01 T02130179  RH  081%=      5-min Rain = 0
KHA3 141213Z 36008KT 21/18 A3012 RMK A01 T02130179  RH  081%=      5-min Rain = 0
KHA3 141214Z 36008KT 21/18 A3012 RMK A01 T02130179  RH  081%=      5-min Rain = 0
KHA3 141215Z 00007KT 21/18 A3012 RMK A01 T02130179  RH  081%=      5-min Rain = 0
KHA3 141216Z 36007KT 21/18 A3013 RMK A01 T02130179  RH  081%=      5-min Rain = 0
KHA3 141217Z 36008KT 21/18 A3013 RMK A01 T02130179  RH  081%=      5-min Rain = 0
KHA3 141218Z 36008KT 21/18 A3013 RMK A01 T02130179  RH  081%=      5-min Rain = 0
KHA3 141219Z 00008KT 21/18 A3013 RMK A01 T02130179  RH  081%=      5-min Rain = 0
KHA3 141220Z 01009KT 21/18 A3013 RMK A01 T02130179  RH  081%=      5-min Rain = 0
KHA3 141221Z 00008KT 21/18 A3013 RMK A01 T02130179  RH  081%=      5-min Rain = 0
KHA3 141222Z 36008KT 21/18 A3013 RMK A01 T02120179  RH  081%=      5-min Rain = 0
KHA3 141223Z 00010KT 21/18 A3013 RMK A01 T02120179  RH  081%=      5-min Rain = 0
KHA3 141224Z 36010KT 21/18 A3013 RMK A01 T02120179  RH  081%=      5-min Rain = 0
KHA3 141225Z 36008KT 21/18 A3013 RMK A01 T02120179  RH  081%=      5-min Rain = 0
KHA3 141226Z 00009KT 21/18 A3013 RMK A01 T02120179  RH  081%=      5-min Rain = 0
KHA3 141227Z 35010KT 21/18 A3013 RMK A01 T02120179  RH  081%=      5-min Rain = 0
KHA3 141228Z 36010KT 21/18 A3013 RMK A01 T02120179  RH  081%=      5-min Rain = 0
KHA3 141229Z 00012KT 21/18 A3013 RMK A01 T02120179  RH  081%=      5-min Rain = 0
KHA3 141230Z 36012KT 21/18 A3013 RMK A01 T02120178  RH  081%=      5-min Rain = 0
KHA3 141231Z 36012KT 21/18 A3013 RMK A01 T02120178  RH  081%=      5-min Rain = 0
KHA3 141232Z 00012KT 21/18 A3013 RMK A01 T02120178  RH  081%=      5-min Rain = 0
KHA3 141233Z 35012KT 21/18 A3014 RMK A01 T02120178  RH  081%=      5-min Rain = 0
KHA3 141234Z 36009KT 21/18 A3014 RMK A01 T02120178  RH  081%=      5-min Rain = 0
KHA3 141235Z 36011KT 21/18 A3014 RMK A01 T02120178  RH  081%=      5-min Rain = 0
KHA3 141236Z 01011KT 21/18 A3014 RMK A01 T02120178  RH  081%=      5-min Rain = 0
KHA3 141237Z 36012KT 21/18 A3014 RMK A01 T02120178  RH  081%=      5-min Rain = 0
KHA3 141238Z 00010KT 21/18 A3014 RMK A01 T02120178  RH  081%=      5-min Rain = 0
KHA3 141239Z 36010KT 21/18 A3013 RMK A01 T02120178  RH  081%=      5-min Rain = 0
KHA3 141240Z 00011KT 21/18 A3013 RMK A01 T02120178  RH  081%=      5-min Rain = 0
KHA3 141241Z 00009KT 21/18 A3013 RMK A01 T02120178  RH  081%=      5-min Rain = 0
KHA3 141242Z 36009KT 21/18 A3013 RMK A01 T02120178  RH  081%=      5-min Rain = 0
KHA3 141243Z 36009KT 21/18 A3013 RMK A01 T02130178  RH  081%=      5-min Rain = 0
KHA3 141244Z 00009KT 21/18 A3013 RMK A01 T02130178  RH  081%=      5-min Rain = 0
KHA3 141245Z 00009KT 21/18 A3013 RMK A01 T02130178  RH  080%=      5-min Rain = 0
KHA3 141246Z 01009KT 21/18 A3013 RMK A01 T02130178  RH  080%=      5-min Rain = 0
KHA3 141247Z 00010KT 21/18 A3013 RMK A01 T02130178  RH  080%=      5-min Rain = 0
KHA3 141248Z 36008KT 21/18 A3013 RMK A01 T02130178  RH  080%=      5-min Rain = 0
KHA3 141249Z 00010KT 21/18 A3014 RMK A01 T02130178  RH  080%=      5-min Rain = 0
KHA3 141250Z 00009KT 21/18 A3014 RMK A01 T02130178  RH  080%=      5-min Rain = 0
KHA3 141251Z 00010KT 21/18 A3014 RMK A01 T02130178  RH  080%=      5-min Rain = 0
KHA3 141252Z 00010KT 21/18 A3014 RMK A01 T02140178  RH  080%=      5-min Rain = 0
KHA3 141253Z 00009KT 21/18 A3014 RMK A01 T02140178  RH  080%=      5-min Rain = 0
KHA3 141254Z 00012KT 21/18 A3014 RMK A01 T02140178  RH  080%=      5-min Rain = 0
KHA3 141255Z 36010KT 21/18 A3014 RMK A01 T02140178  RH  080%=      5-min Rain = 0
KHA3 141256Z 00010KT 21/18 A3014 RMK A01 T02140178  RH  080%=      5-min Rain = 0
KHA3 141257Z 00008KT 21/18 A3014 RMK A01 T02140178  RH  080%=      5-min Rain = 0
KHA3 141258Z 00008KT 22/18 A3014 RMK A01 T02150179  RH  080%=      5-min Rain = 0
KHA3 141259Z 01007KT 22/18 A3014 RMK A01 T02150179  RH  080%=      5-min Rain = 0
KHA3 141300Z 01008KT 22/18 A3014 RMK A01 T02150179  RH  080%=      5-min Rain = 0
KHA3 141301Z 36010KT 22/18 A3014 RMK A01 T02160179  RH  079%=      5-min Rain = 0
KHA3 141302Z 01009KT 22/18 A3014 RMK A01 T02160179  RH  079%=      5-min Rain = 0
KHA3 141303Z 00010KT 22/18 A3014 RMK A01 T02160179  RH  079%=      5-min Rain = 0
KHA3 141304Z 00010KT 22/18 A3014 RMK A01 T02160179  RH  079%=      5-min Rain = 0
KHA3 141305Z 00011KT 22/18 A3014 RMK A01 T02170179  RH  079%=      5-min Rain = 0
KHA3 141306Z 00012KT 22/18 A3014 RMK A01 T02170179  RH  079%=      5-min Rain = 0
KHA3 141307Z 00010KT 22/18 A3014 RMK A01 T02170179  RH  079%=      5-min Rain = 0
KHA3 141308Z 00009KT 22/18 A3014 RMK A01 T02170179  RH  079%=      5-min Rain = 0
KHA3 141309Z 01008KT 22/18 A3014 RMK A01 T02170179  RH  079%=      5-min Rain = 0
KHA3 141310Z 00009KT 22/18 A3014 RMK A01 T02180179  RH  079%=      5-min Rain = 0
KHA3 141311Z 00009KT 22/18 A3014 RMK A01 T02180179  RH  078%=      5-min Rain = 0
KHA3 141312Z 00009KT 22/18 A3014 RMK A01 T02190179  RH  078%=      5-min Rain = 0
KHA3 141313Z 00008KT 22/18 A3014 RMK A01 T02200180  RH  078%=      5-min Rain = 0
KHA3 141314Z 01008KT 22/18 A3014 RMK A01 T02210180  RH  077%=      5-min Rain = 0
KHA3 141315Z 00009KT 22/18 A3014 RMK A01 T02220180  RH  077%=      5-min Rain = 0
KHA3 141316Z 01009KT 22/18 A3014 RMK A01 T02230180  RH  076%=      5-min Rain = 0
KHA3 141317Z 00008KT 22/18 A3014 RMK A01 T02230180  RH  076%=      5-min Rain = 0
KHA3 141318Z 01009KT 23/18 A3015 RMK A01 T02260181  RH  076%=      5-min Rain = 0
KHA3 141319Z 01008KT 23/18 A3015 RMK A01 T02270181  RH  075%=      5-min Rain = 0
KHA3 141320Z 01009KT 23/18 A3015 RMK A01 T02280181  RH  075%=      5-min Rain = 0
KHA3 141321Z 01010KT 23/18 A3015 RMK A01 T02280181  RH  075%=      5-min Rain = 0
KHA3 141322Z 01009KT 23/18 A3015 RMK A01 T02280181  RH  075%=      5-min Rain = 0
KHA3 141323Z 01008KT 23/18 A3015 RMK A01 T02280181  RH  075%=      5-min Rain = 0
KHA3 141324Z 02008KT 23/18 A3015 RMK A01 T02290182  RH  075%=      5-min Rain = 0
KHA3 141325Z 02009KT 23/18 A3015 RMK A01 T02300182  RH  074%=      5-min Rain = 0
KHA3 141326Z 01007KT 23/18 A3015 RMK A01 T02300182  RH  074%=      5-min Rain = 0
KHA3 141327Z 01010KT 23/18 A3015 RMK A01 T02320183  RH  074%=      5-min Rain = 0
KHA3 141328Z 02009KT 23/18 A3015 RMK A01 T02320182  RH  074%=      5-min Rain = 0
KHA3 141329Z 02008KT 23/18 A3015 RMK A01 T02310182  RH  074%=      5-min Rain = 0
KHA3 141330Z 02008KT 23/18 A3015 RMK A01 T02310183  RH  074%=      5-min Rain = 0
KHA3 141331Z 01010KT 23/18 A3015 RMK A01 T02310182  RH  074%=      5-min Rain = 0
KHA3 141332Z 01009KT 23/18 A3015 RMK A01 T02320183  RH  074%=      5-min Rain = 0
KHA3 141333Z 02008KT 23/18 A3015 RMK A01 T02310182  RH  074%=      5-min Rain = 0
KHA3 141334Z 02009KT 23/18 A3015 RMK A01 T02330182  RH  073%=      5-min Rain = 0
KHA3 141335Z 01008KT 23/18 A3015 RMK A01 T02330182  RH  073%=      5-min Rain = 0
KHA3 141336Z 01008KT 23/18 A3015 RMK A01 T02330182  RH  073%=      5-min Rain = 0
KHA3 141337Z 00008KT 23/18 A3015 RMK A01 T02340183  RH  073%=      5-min Rain = 0
KHA3 141338Z 01007KT 24/18 A3015 RMK A01 T02350183  RH  073%=      5-min Rain = 0
KHA3 141339Z 02007KT 24/18 A3015 RMK A01 T02360183  RH  072%=      5-min Rain = 0
KHA3 141340Z 00008KT 24/18 A3015 RMK A01 T02370183  RH  072%=      5-min Rain = 0
KHA3 141341Z 03007KT 24/18 A3015 RMK A01 T02370184  RH  072%=      5-min Rain = 0
KHA3 141342Z 02005KT 24/18 A3015 RMK A01 T02360184  RH  072%=      5-min Rain = 0
KHA3 141343Z 02006KT 24/18 A3015 RMK A01 T02370184  RH  072%=      5-min Rain = 0
KHA3 141344Z 01007KT 24/18 A3015 RMK A01 T02370184  RH  072%=      5-min Rain = 0
KHA3 141345Z 01006KT 24/18 A3015 RMK A01 T02370183  RH  072%=      5-min Rain = 0
KHA3 141346Z 01005KT 24/18 A3015 RMK A01 T02380184  RH  072%=      5-min Rain = 0
KHA3 141347Z 01007KT 24/19 A3015 RMK A01 T02390185  RH  072%=      5-min Rain = 0
KHA3 141348Z 01007KT 24/19 A3015 RMK A01 T02390185  RH  072%=      5-min Rain = 0
KHA3 141349Z 01007KT 24/19 A3015 RMK A01 T02370185  RH  072%=      5-min Rain = 0
KHA3 141350Z 01007KT 24/19 A3015 RMK A01 T02370185  RH  073%=      5-min Rain = 0
KHA3 141351Z 01007KT 24/19 A3015 RMK A01 T02370185  RH  073%=      5-min Rain = 0
KHA3 141352Z 01005KT 24/19 A3015 RMK A01 T02370185  RH  073%=      5-min Rain = 0
KHA3 141353Z 01005KT 24/19 A3015 RMK A01 T02370186  RH  073%=      5-min Rain = 0
KHA3 141354Z 02004KT 24/19 A3014 RMK A01 T02370187  RH  073%=      5-min Rain = 0
KHA3 141355Z 02004KT 24/19 A3014 RMK A01 T02390187  RH  072%=      5-min Rain = 0
KHA3 141356Z 02003KT 24/19 A3014 RMK A01 T02400188  RH  072%=      5-min Rain = 0
KHA3 141357Z 02004KT 24/19 A3014 RMK A01 T02430187  RH  071%=      5-min Rain = 0
KHA3 141358Z 01006KT 24/19 A3014 RMK A01 T02430187  RH  071%=      5-min Rain = 0
KHA3 141359Z 02006KT 24/19 A3014 RMK A01 T02430188  RH  071%=      5-min Rain = 0
KHA3 141400Z 02006KT 24/19 A3015 RMK A01 T02440188  RH  071%=      5-min Rain = 0
KHA3 141401Z 01008KT 24/19 A3015 RMK A01 T02440188  RH  071%=      5-min Rain = 0
KHA3 141402Z 00008KT 24/19 A3015 RMK A01 T02440189  RH  071%=      5-min Rain = 0
KHA3 141403Z 00008KT 24/19 A3015 RMK A01 T02440189  RH  071%=      5-min Rain = 0
KHA3 141404Z 01008KT 24/19 A3015 RMK A01 T02440189  RH  071%=      5-min Rain = 0
KHA3 141405Z 01008KT 25/19 A3015 RMK A01 T02460190  RH  071%=      5-min Rain = 0
KHA3 141406Z 00007KT 25/19 A3015 RMK A01 T02470189  RH  070%=      5-min Rain = 0
KHA3 141407Z 01007KT 25/19 A3015 RMK A01 T02470189  RH  070%=      5-min Rain = 0
KHA3 141408Z 35008KT 25/19 A3015 RMK A01 T02480190  RH  070%=      5-min Rain = 0
KHA3 141409Z 36008KT 25/19 A3015 RMK A01 T02490190  RH  070%=      5-min Rain = 0
KHA3 141410Z 35008KT 25/19 A3016 RMK A01 T02490190  RH  070%=      5-min Rain = 0
KHA3 141411Z 35008KT 25/19 A3016 RMK A01 T02490192  RH  070%=      5-min Rain = 0
KHA3 141412Z 01007KT 25/19 A3016 RMK A01 T02490191  RH  070%=      5-min Rain = 0
KHA3 141413Z 00009KT 25/19 A3016 RMK A01 T02490191  RH  070%=      5-min Rain = 0
KHA3 141414Z 01008KT 25/19 A3016 RMK A01 T02490190  RH  070%=      5-min Rain = 0
KHA3 141415Z 01008KT 25/19 A3016 RMK A01 T02490190  RH  070%=      5-min Rain = 0
KHA3 141416Z 01007KT 25/19 A3016 RMK A01 T02510192  RH  069%=      5-min Rain = 0
KHA3 141417Z 36007KT 25/19 A3016 RMK A01 T02540192  RH  069%=      5-min Rain = 0
KHA3 141418Z 35007KT 25/19 A3016 RMK A01 T02540192  RH  069%=      5-min Rain = 0
KHA3 141419Z 36007KT 25/19 A3016 RMK A01 T02510192  RH  070%=      5-min Rain = 0
KHA3 141420Z 01007KT 25/19 A3016 RMK A01 T02500192  RH  070%=      5-min Rain = 0
KHA3 141421Z 00007KT 25/19 A3016 RMK A01 T02510193  RH  070%=      5-min Rain = 0
KHA3 141422Z 01008KT 25/19 A3016 RMK A01 T02520194  RH  070%=      5-min Rain = 0
KHA3 141423Z 01009KT 25/20 A3016 RMK A01 T02540195  RH  070%=      5-min Rain = 0
KHA3 141424Z 02008KT 26/19 A3016 RMK A01 T02550194  RH  069%=      5-min Rain = 0
KHA3 141425Z 01008KT 25/19 A3016 RMK A01 T02540194  RH  069%=      5-min Rain = 0
KHA3 141426Z 02006KT 25/20 A3016 RMK A01 T02540195  RH  070%=      5-min Rain = 0
KHA3 141427Z 01006KT 26/20 A3016 RMK A01 T02580196  RH  068%=      5-min Rain = 0
KHA3 141428Z 02008KT 26/20 A3016 RMK A01 T02610196  RH  067%=      5-min Rain = 0
KHA3 141429Z 36008KT 26/20 A3016 RMK A01 T02620196  RH  067%=      5-min Rain = 0
KHA3 141430Z 35009KT 26/20 A3016 RMK A01 T02610196  RH  067%=      5-min Rain = 0
KHA3 141431Z 36010KT 26/20 A3016 RMK A01 T02630197  RH  067%=      5-min Rain = 0
KHA3 141432Z 36008KT 26/20 A3016 RMK A01 T02630196  RH  067%=      5-min Rain = 0
KHA3 141433Z 36007KT 26/20 A3016 RMK A01 T02610196  RH  067%=      5-min Rain = 0
KHA3 141434Z 02011KT 26/20 A3016 RMK A01 T02630198  RH  067%=      5-min Rain = 0
KHA3 141435Z 01008KT 26/20 A3016 RMK A01 T02640199  RH  067%=      5-min Rain = 0
KHA3 141436Z 03006KT 26/20 A3016 RMK A01 T02620198  RH  068%=      5-min Rain = 0
KHA3 141437Z 01006KT 26/20 A3016 RMK A01 T02620197  RH  067%=      5-min Rain = 0
KHA3 141438Z 00009KT 26/20 A3016 RMK A01 T02620197  RH  067%=      5-min Rain = 0
KHA3 141439Z 36008KT 26/20 A3016 RMK A01 T02620198  RH  068%=      5-min Rain = 0
KHA3 141440Z 00007KT 26/20 A3016 RMK A01 T02630199  RH  068%=      5-min Rain = 0
KHA3 141441Z 02006KT 26/20 A3016 RMK A01 T02640201  RH  068%=      5-min Rain = 0
KHA3 141442Z 01005KT 26/20 A3016 RMK A01 T02640200  RH  068%=      5-min Rain = 0
KHA3 141443Z 02003KT 26/20 A3016 RMK A01 T02620199  RH  068%=      5-min Rain = 0
KHA3 141444Z 05004KT 26/20 A3016 RMK A01 T02620200  RH  069%=      5-min Rain = 0
KHA3 141445Z 05005KT 26/20 A3016 RMK A01 T02640199  RH  068%=      5-min Rain = 0
KHA3 141446Z 03006KT 26/20 A3016 RMK A01 T02640199  RH  067%=      5-min Rain = 0
KHA3 141447Z 03005KT 26/20 A3016 RMK A01 T02640199  RH  067%=      5-min Rain = 0
KHA3 141448Z 04003KT 26/20 A3016 RMK A01 T02620198  RH  068%=      5-min Rain = 0
KHA3 141449Z 01004KT 26/20 A3016 RMK A01 T02630199  RH  068%=      5-min Rain = 0
KHA3 141450Z 01007KT 27/20 A3016 RMK A01 T02660199  RH  067%=      5-min Rain = 0
KHA3 141451Z 01007KT 27/20 A3016 RMK A01 T02680199  RH  066%=      5-min Rain = 0
KHA3 141452Z 00006KT 27/20 A3016 RMK A01 T02690199  RH  066%=      5-min Rain = 0
KHA3 141453Z 35005KT 27/20 A3016 RMK A01 T02690200  RH  066%=      5-min Rain = 0
KHA3 141454Z 36005KT 27/20 A3016 RMK A01 T02700199  RH  065%=      5-min Rain = 0
KHA3 141455Z 35006KT 27/20 A3016 RMK A01 T02690200  RH  066%=      5-min Rain = 0
KHA3 141456Z 36006KT 27/20 A3016 RMK A01 T02700200  RH  065%=      5-min Rain = 0
KHA3 141457Z 35007KT 27/20 A3016 RMK A01 T02710200  RH  065%=      5-min Rain = 0
KHA3 141458Z 01007KT 27/20 A3016 RMK A01 T02710200  RH  065%=      5-min Rain = 0
KHA3 141459Z 36006KT 27/20 A3016 RMK A01 T02700199  RH  065%=      5-min Rain = 0
KHA3 141500Z 00005KT 27/20 A3016 RMK A01 T02680199  RH  066%=      5-min Rain = 0
KHA3 141501Z 01006KT 27/20 A3016 RMK A01 T02690201  RH  066%=      5-min Rain = 0
KHA3 141502Z 02004KT 27/20 A3016 RMK A01 T02710200  RH  065%=      5-min Rain = 0
KHA3 141503Z 00005KT 27/20 A3016 RMK A01 T02710200  RH  065%=      5-min Rain = 0
KHA3 141504Z 01005KT 27/20 A3016 RMK A01 T02710199  RH  065%=      5-min Rain = 0
KHA3 141505Z 00006KT 27/20 A3016 RMK A01 T02700200  RH  065%=      5-min Rain = 0
KHA3 141506Z 02008KT 27/20 A3016 RMK A01 T02700200  RH  065%=      5-min Rain = 0
KHA3 141507Z 02005KT 27/20 A3016 RMK A01 T02700200  RH  065%=      5-min Rain = 0
KHA3 141508Z 36006KT 27/20 A3016 RMK A01 T02710201  RH  065%=      5-min Rain = 0
KHA3 141509Z 34007KT 27/20 A3016 RMK A01 T02730201  RH  064%=      5-min Rain = 0
KHA3 141510Z 01006KT 27/20 A3016 RMK A01 T02740200  RH  064%=      5-min Rain = 0
KHA3 141511Z 01004KT 28/20 A3016 RMK A01 T02750201  RH  064%=      5-min Rain = 0
KHA3 141512Z 03003KT 28/20 A3016 RMK A01 T02780202  RH  063%=      5-min Rain = 0
KHA3 141513Z 36006KT 28/20 A3016 RMK A01 T02790202  RH  063%=      5-min Rain = 0
KHA3 141514Z 01007KT 28/20 A3016 RMK A01 T02800202  RH  063%=      5-min Rain = 0
KHA3 141515Z 01007KT 28/20 A3016 RMK A01 T02800202  RH  063%=      5-min Rain = 0
KHA3 141516Z 01007KT 28/20 A3016 RMK A01 T02800202  RH  063%=      5-min Rain = 0
KHA3 141517Z 01007KT 28/20 A3016 RMK A01 T02780202  RH  063%=      5-min Rain = 0
KHA3 141518Z 01005KT 28/20 A3016 RMK A01 T02760201  RH  064%=      5-min Rain = 0
KHA3 141519Z 02007KT 28/20 A3016 RMK A01 T02760202  RH  064%=      5-min Rain = 0
KHA3 141520Z 02009KT 28/20 A3016 RMK A01 T02780203  RH  064%=      5-min Rain = 0
KHA3 141521Z 00007KT 28/20 A3016 RMK A01 T02790203  RH  063%=      5-min Rain = 0
KHA3 141522Z 00009KT 28/20 A3016 RMK A01 T02780202  RH  063%=      5-min Rain = 0
KHA3 141523Z 00007KT 28/20 A3016 RMK A01 T02780202  RH  063%=      5-min Rain = 0
KHA3 141524Z 01006KT 28/20 A3016 RMK A01 T02790203  RH  063%=      5-min Rain = 0
KHA3 141525Z 36004KT 28/20 A3016 RMK A01 T02790203  RH  063%=      5-min Rain = 0
KHA3 141526Z 02007KT 28/20 A3016 RMK A01 T02790203  RH  063%=      5-min Rain = 0
KHA3 141527Z 01007KT 28/20 A3016 RMK A01 T02810203  RH  063%=      5-min Rain = 0
KHA3 141528Z 03008KT 28/20 A3016 RMK A01 T02840204  RH  062%=      5-min Rain = 0
KHA3 141529Z 03006KT 29/20 A3016 RMK A01 T02850203  RH  061%=      5-min Rain = 0
KHA3 141530Z 36007KT 29/20 A3016 RMK A01 T02870204  RH  061%=      5-min Rain = 0
KHA3 141531Z 34009KT 29/20 A3016 RMK A01 T02900204  RH  060%=      5-min Rain = 0
KHA3 141532Z 34010KT 29/20 A3016 RMK A01 T02880203  RH  060%=      5-min Rain = 0
KHA3 141533Z 35009KT 29/20 A3016 RMK A01 T02860203  RH  061%=      5-min Rain = 0
KHA3 141534Z 35008KT 29/20 A3016 RMK A01 T02860202  RH  060%=      5-min Rain = 0
KHA3 141535Z 00010KT 29/20 A3016 RMK A01 T02890204  RH  060%=      5-min Rain = 0
KHA3 141536Z 00008KT 29/20 A3016 RMK A01 T02910203  RH  059%=      5-min Rain = 0
KHA3 141537Z 00005KT 29/20 A3016 RMK A01 T02880202  RH  060%=      5-min Rain = 0
KHA3 141538Z 02007KT 29/20 A3015 RMK A01 T02880202  RH  060%=      5-min Rain = 0
KHA3 141539Z 03006KT 29/20 A3015 RMK A01 T02880203  RH  060%=      5-min Rain = 0
KHA3 141540Z 04003KT 29/20 A3015 RMK A01 T02870203  RH  060%=      5-min Rain = 0
KHA3 141541Z 01003KT 29/20 A3015 RMK A01 T02870202  RH  060%=      5-min Rain = 0
KHA3 141542Z 36007KT 29/20 A3015 RMK A01 T02890201  RH  059%=      5-min Rain = 0
KHA3 141543Z 35006KT 29/20 A3015 RMK A01 T02880201  RH  059%=      5-min Rain = 0
KHA3 141544Z 34009KT 29/20 A3015 RMK A01 T02870202  RH  060%=      5-min Rain = 0
KHA3 141545Z 35006KT 29/20 A3015 RMK A01 T02870202  RH  060%=      5-min Rain = 0
KHA3 141546Z 36005KT 29/20 A3015 RMK A01 T02870203  RH  060%=      5-min Rain = 0
KHA3 141547Z 03006KT 29/21 A3015 RMK A01 T02900205  RH  060%=      5-min Rain = 0
KHA3 141548Z 03005KT 29/20 A3015 RMK A01 T02920203  RH  059%=      5-min Rain = 0
KHA3 141549Z 00004KT 29/20 A3015 RMK A01 T02920202  RH  058%=      5-min Rain = 0
KHA3 141550Z 35005KT 29/20 A3015 RMK A01 T02910202  RH  059%=      5-min Rain = 0
KHA3 141551Z 35005KT 29/20 A3015 RMK A01 T02910203  RH  059%=      5-min Rain = 0
KHA3 141552Z 34005KT 29/20 A3015 RMK A01 T02920203  RH  059%=      5-min Rain = 0
KHA3 141553Z 35009KT 30/20 A3015 RMK A01 T02950203  RH  058%=      5-min Rain = 0
KHA3 141554Z 01010KT 30/20 A3015 RMK A01 T02950204  RH  058%=      5-min Rain = 0
KHA3 141555Z 35006KT 30/20 A3015 RMK A01 T02950203  RH  058%=      5-min Rain = 0
KHA3 141556Z 36006KT 29/20 A3014 RMK A01 T02920203  RH  059%=      5-min Rain = 0
KHA3 141557Z 35005KT 29/20 A3014 RMK A01 T02930203  RH  059%=      5-min Rain = 0
KHA3 141558Z 34006KT 29/20 A3014 RMK A01 T02930203  RH  058%=      5-min Rain = 0
KHA3 141559Z 01006KT 29/20 A3014 RMK A01 T02940203  RH  058%=      5-min Rain = 0
KHA3 141600Z 34008KT 30/20 A3015 RMK A01 T02950202  RH  057%=      5-min Rain = 0
KHA3 141601Z 34008KT 30/20 A3015 RMK A01 T02960201  RH  057%=      5-min Rain = 0
KHA3 141602Z 34008KT 30/20 A3015 RMK A01 T02960201  RH  057%=      5-min Rain = 0
KHA3 141603Z 36007KT 30/20 A3015 RMK A01 T02960201  RH  057%=      5-min Rain = 0
KHA3 141604Z 03008KT 30/20 A3015 RMK A01 T02970199  RH  056%=      5-min Rain = 0
KHA3 141605Z 03008KT 30/20 A3015 RMK A01 T02980198  RH  055%=      5-min Rain = 0
KHA3 141606Z 02005KT 30/20 A3015 RMK A01 T02980199  RH  055%=      5-min Rain = 0
KHA3 141607Z 01009KT 30/20 A3015 RMK A01 T02990201  RH  056%=      5-min Rain = 0
KHA3 141608Z 01010KT 30/20 A3015 RMK A01 T03020203  RH  055%=      5-min Rain = 0
KHA3 141609Z 01008KT 30/20 A3015 RMK A01 T03020201  RH  055%=      5-min Rain = 0
KHA3 141610Z 02005KT 30/20 A3015 RMK A01 T03010201  RH  055%=      5-min Rain = 0
KHA3 141611Z 02005KT 30/20 A3015 RMK A01 T03000201  RH  055%=      5-min Rain = 0
KHA3 141612Z 36005KT 30/20 A3015 RMK A01 T03000202  RH  056%=      5-min Rain = 0
KHA3 141613Z 00010KT 31/20 A3015 RMK A01 T03050204  RH  055%=      5-min Rain = 0
KHA3 141614Z 01010KT 31/20 A3015 RMK A01 T03080202  RH  053%=      5-min Rain = 0
KHA3 141615Z 01008KT 31/20 A3015 RMK A01 T03060203  RH  054%=      5-min Rain = 0
KHA3 141616Z 36009KT 31/20 A3015 RMK A01 T03060201  RH  054%=      5-min Rain = 0
KHA3 141617Z 35008KT 31/20 A3015 RMK A01 T03050200  RH  053%=      5-min Rain = 0
KHA3 141618Z 35006KT 30/20 A3015 RMK A01 T03030201  RH  054%=      5-min Rain = 0
KHA3 141619Z 00006KT 31/20 A3015 RMK A01 T03050201  RH  054%=      5-min Rain = 0
KHA3 141620Z 00003KT 31/20 A3015 RMK A01 T03050200  RH  053%=      5-min Rain = 0
KHA3 141621Z 00006KT 30/20 A3015 RMK A01 T03040200  RH  054%=      5-min Rain = 0
KHA3 141622Z 36009KT 31/20 A3014 RMK A01 T03060200  RH  053%=      5-min Rain = 0
KHA3 141623Z 35009KT 31/20 A3014 RMK A01 T03070197  RH  052%=      5-min Rain = 0
KHA3 141624Z 34007KT 31/20 A3014 RMK A01 T03060196  RH  052%=      5-min Rain = 0
KHA3 141625Z 33006KT 31/20 A3014 RMK A01 T03080195  RH  051%=      5-min Rain = 0
KHA3 141626Z 33006KT 31/20 A3014 RMK A01 T03090196  RH  051%=      5-min Rain = 0
KHA3 141627Z 34007KT 31/20 A3014 RMK A01 T03080200  RH  052%=      5-min Rain = 0
KHA3 141628Z 33007KT 31/20 A3014 RMK A01 T03100200  RH  052%=      5-min Rain = 0
KHA3 141629Z 35005KT 31/20 A3014 RMK A01 T03110200  RH  052%=      5-min Rain = 0
KHA3 141630Z 34005KT 31/20 A3014 RMK A01 T03130199  RH  051%=      5-min Rain = 0
KHA3 141631Z 01009KT 31/20 A3014 RMK A01 T03130196  RH  050%=      5-min Rain = 0
KHA3 141632Z 03007KT 31/19 A3014 RMK A01 T03120192  RH  049%=      5-min Rain = 0
KHA3 141633Z 02006KT 31/19 A3014 RMK A01 T03110192  RH  049%=      5-min Rain = 0
KHA3 141634Z 03007KT 31/19 A3014 RMK A01 T03130193  RH  049%=      5-min Rain = 0
KHA3 141635Z 02008KT 32/19 A3014 RMK A01 T03150192  RH  048%=      5-min Rain = 0
KHA3 141636Z 03005KT 31/19 A3014 RMK A01 T03100193  RH  050%=      5-min Rain = 0
KHA3 141637Z 03009KT 31/20 A3014 RMK A01 T03100196  RH  051%=      5-min Rain = 0
KHA3 141638Z 05007KT 31/20 A3014 RMK A01 T03110195  RH  050%=      5-min Rain = 0
KHA3 141639Z 03007KT 31/20 A3014 RMK A01 T03080195  RH  051%=      5-min Rain = 0
KHA3 141640Z 04005KT 31/20 A3014 RMK A01 T03070195  RH  051%=      5-min Rain = 0
KHA3 141641Z 02010KT 31/20 A3014 RMK A01 T03070196  RH  051%=      5-min Rain = 0
KHA3 141642Z 02006KT 31/20 A3014 RMK A01 T03080195  RH  051%=      5-min Rain = 0
KHA3 141643Z 00008KT 31/20 A3014 RMK A01 T03100196  RH  051%=      5-min Rain = 0
KHA3 141644Z 36005KT 31/20 A3014 RMK A01 T03120197  RH  050%=      5-min Rain = 0
KHA3 141645Z 05008KT 31/20 A3014 RMK A01 T03100195  RH  050%=      5-min Rain = 0
KHA3 141646Z 05010KT 31/19 A3014 RMK A01 T03110194  RH  050%=      5-min Rain = 0
KHA3 141647Z 04008KT 31/19 A3014 RMK A01 T03140194  RH  049%=      5-min Rain = 0
KHA3 141648Z 04007KT 32/19 A3013 RMK A01 T03170193  RH  048%=      5-min Rain = 0
KHA3 141649Z 05006KT 32/19 A3013 RMK A01 T03150193  RH  048%=      5-min Rain = 0
KHA3 141650Z 05007KT 32/20 A3013 RMK A01 T03150195  RH  049%=      5-min Rain = 0
KHA3 141651Z 03005KT 32/20 A3013 RMK A01 T03150195  RH  049%=      5-min Rain = 0
KHA3 141652Z 04008KT 32/19 A3013 RMK A01 T03150194  RH  049%=      5-min Rain = 0
KHA3 141653Z 00011KT 32/19 A3013 RMK A01 T03190193  RH  047%=      5-min Rain = 0
KHA3 141654Z 02009KT 32/19 A3013 RMK A01 T03210194  RH  047%=      5-min Rain = 0
KHA3 141655Z 03010KT 32/19 A3013 RMK A01 T03210194  RH  047%=      5-min Rain = 0
KHA3 141656Z 02008KT 32/19 A3013 RMK A01 T03190193  RH  047%=      5-min Rain = 0
KHA3 141657Z 04006KT 32/19 A3013 RMK A01 T03170192  RH  048%=      5-min Rain = 0
KHA3 141658Z 05006KT 32/19 A3013 RMK A01 T03160193  RH  048%=      5-min Rain = 0
KHA3 141659Z 04005KT 32/19 A3013 RMK A01 T03170192  RH  048%=      5-min Rain = 0
KHA3 141700Z 02007KT 32/19 A3013 RMK A01 T03170194  RH  048%=      5-min Rain = 0
KHA3 141701Z 03010KT 32/19 A3013 RMK A01 T03230193  RH  046%=      5-min Rain = 0
KHA3 141702Z 03010KT 33/19 A3013 RMK A01 T03270192  RH  045%=      5-min Rain = 0
KHA3 141703Z 04010KT 32/19 A3013 RMK A01 T03240190  RH  045%=      5-min Rain = 0
KHA3 141704Z 05007KT 32/19 A3013 RMK A01 T03190187  RH  046%=      5-min Rain = 0
KHA3 141705Z 05005KT 32/19 A3012 RMK A01 T03190186  RH  045%=      5-min Rain = 0
KHA3 141706Z 05006KT 32/19 A3012 RMK A01 T03200188  RH  046%=      5-min Rain = 0
KHA3 141707Z 06006KT 32/19 A3012 RMK A01 T03180187  RH  046%=      5-min Rain = 0
KHA3 141708Z 05005KT 32/19 A3012 RMK A01 T03160187  RH  047%=      5-min Rain = 0
KHA3 141709Z 02007KT 32/19 A3012 RMK A01 T03170191  RH  047%=      5-min Rain = 0
KHA3 141710Z 01009KT 32/19 A3012 RMK A01 T03200191  RH  046%=      5-min Rain = 0
KHA3 141711Z 01006KT 32/19 A3012 RMK A01 T03200192  RH  047%=      5-min Rain = 0
KHA3 141712Z 04006KT 32/19 A3012 RMK A01 T03230193  RH  046%=      5-min Rain = 0
KHA3 141713Z 06009KT 33/19 A3012 RMK A01 T03260190  RH  045%=      5-min Rain = 0
KHA3 141714Z 07008KT 33/19 A3012 RMK A01 T03260188  RH  044%=      5-min Rain = 0
KHA3 141715Z 07008KT 33/19 A3012 RMK A01 T03260189  RH  044%=      5-min Rain = 0
KHA3 141716Z 06008KT 33/19 A3012 RMK A01 T03260189  RH  044%=      5-min Rain = 0
KHA3 141717Z 05009KT 33/19 A3012 RMK A01 T03280190  RH  044%=      5-min Rain = 0
KHA3 141718Z 04011KT 33/19 A3012 RMK A01 T03270190  RH  044%=      5-min Rain = 0
KHA3 141719Z 03010KT 33/19 A3012 RMK A01 T03280188  RH  043%=      5-min Rain = 0
KHA3 141720Z 03007KT 33/19 A3012 RMK A01 T03270186  RH  043%=      5-min Rain = 0
KHA3 141721Z 05005KT 32/19 A3012 RMK A01 T03240187  RH  044%=      5-min Rain = 0
KHA3 141722Z 04006KT 33/19 A3011 RMK A01 T03260188  RH  044%=      5-min Rain = 0
KHA3 141723Z 06009G14KT 33/19 A3011 RMK A01 T03250187  RH  044%=      5-min Rain = 0
KHA3 141724Z 07011KT 32/19 A3011 RMK A01 T03240186  RH  044%=      5-min Rain = 0
KHA3 141725Z 07010KT 32/19 A3011 RMK A01 T03240187  RH  045%=      5-min Rain = 0
KHA3 141726Z 09007KT 32/19 A3011 RMK A01 T03240187  RH  044%=      5-min Rain = 0
KHA3 141727Z 10004KT 32/19 A3011 RMK A01 T03240188  RH  044%=      5-min Rain = 0
KHA3 141728Z 06003KT 32/19 A3011 RMK A01 T03240188  RH  045%=      5-min Rain = 0
KHA3 141729Z 07011KT 33/19 A3011 RMK A01 T03270190  RH  045%=      5-min Rain = 0
KHA3 141730Z 08009KT 33/19 A3011 RMK A01 T03290189  RH  044%=      5-min Rain = 0
KHA3 141731Z 05007KT 33/19 A3011 RMK A01 T03250189  RH  045%=      5-min Rain = 0
KHA3 141732Z 05005KT 32/19 A3011 RMK A01 T03240189  RH  045%=      5-min Rain = 0
KHA3 141733Z 05012KT 32/19 A3011 RMK A01 T03240187  RH  044%=      5-min Rain = 0
KHA3 141734Z 04009KT 33/18 A3011 RMK A01 T03250183  RH  043%=      5-min Rain = 0
KHA3 141735Z 03009KT 33/19 A3011 RMK A01 T03300186  RH  043%=      5-min Rain = 0
KHA3 141736Z 03008KT 33/19 A3011 RMK A01 T03300185  RH  042%=      5-min Rain = 0
KHA3 141737Z 06008KT 33/19 A3011 RMK A01 T03280188  RH  044%=      5-min Rain = 0
KHA3 141738Z 07008KT 33/19 A3011 RMK A01 T03300191  RH  044%=      5-min Rain = 0
KHA3 141739Z 07009KT 33/19 A301 RMK A01 T03330191  RH  043%=      5-min Rain = 0
KHA3 141740Z 08006KT 33/19 A301 RMK A01 T03340190  RH  043%=      5-min Rain = 0
KHA3 141741Z 07007KT 33/19 A301 RMK A01 T03330190  RH  043%=      5-min Rain = 0
KHA3 141742Z 05009KT 34/19 A301 RMK A01 T03350189  RH  042%=      5-min Rain = 0
KHA3 141743Z 07010KT 34/19 A301 RMK A01 T03380188  RH  041%=      5-min Rain = 0
KHA3 141744Z 05011KT 34/19 A301 RMK A01 T03390188  RH  041%=      5-min Rain = 0
KHA3 141745Z 05008KT 34/19 A301 RMK A01 T03360185  RH  041%=      5-min Rain = 0
KHA3 141746Z 08007KT 34/19 A301 RMK A01 T03350188  RH  042%=      5-min Rain = 0
KHA3 141747Z 08010KT 34/19 A301 RMK A01 T03360190  RH  042%=      5-min Rain = 0
KHA3 141748Z 05010KT 34/19 A301 RMK A01 T03350189  RH  042%=      5-min Rain = 0
KHA3 141749Z 05013KT 34/19 A301 RMK A01 T03360185  RH  041%=      5-min Rain = 0
KHA3 141750Z 05009KT 34/19 A301 RMK A01 T03360185  RH  041%=      5-min Rain = 0
KHA3 141751Z 07007KT 34/18 A301 RMK A01 T03350184  RH  041%=      5-min Rain = 0
KHA3 141752Z 06009KT 33/19 A301 RMK A01 T03340186  RH  041%=      5-min Rain = 0
KHA3 141753Z 07006KT 34/18 A301 RMK A01 T03360182  RH  040%=      5-min Rain = 0
KHA3 141754Z 07011KT 34/19 A301 RMK A01 T03350186  RH  041%=      5-min Rain = 0
KHA3 141755Z 08006KT 34/19 A301 RMK A01 T03350185  RH  041%=      5-min Rain = 0
KHA3 141756Z 06008G14KT 33/19 A301 RMK A01 T03320186  RH  042%=      5-min Rain = 0
KHA3 141757Z 04009G14KT 33/18 A301 RMK A01 T03330184  RH  041%=      5-min Rain = 0
KHA3 141758Z 04011KT 33/19 A301 RMK A01 T03340187  RH  042%=      5-min Rain = 0
KHA3 141759Z 04010KT 34/19 A301 RMK A01 T03360188  RH  042%=      5-min Rain = 0
KHA3 141800Z 05009KT 33/19 A301 RMK A01 T03340188  RH  042%=      5-min Rain = 0
KHA3 141801Z 03008KT 33/19 A301 RMK A01 T03320190  RH  043%=      5-min Rain = 0
KHA3 141802Z 01007KT 33/19 A301 RMK A01 T03310188  RH  043%=      5-min Rain = 0
KHA3 141803Z 03009KT 33/19 A301 RMK A01 T03300189  RH  043%=      5-min Rain = 0
KHA3 141804Z 03006KT 33/19 A301 RMK A01 T03300190  RH  044%=      5-min Rain = 0
KHA3 141805Z 07007KT 33/19 A3009 RMK A01 T03340191  RH  043%=      5-min Rain = 0
KHA3 141806Z 08010KT 34/19 A3009 RMK A01 T03380188  RH  041%=      5-min Rain = 0
KHA3 141807Z 09008KT 34/19 A3009 RMK A01 T03380185  RH  040%=      5-min Rain = 0
KHA3 141808Z 07009KT 34/19 A3009 RMK A01 T03360185  RH  041%=      5-min Rain = 0
KHA3 141809Z 09008KT 34/19 A3009 RMK A01 T03380185  RH  040%=      5-min Rain = 0
KHA3 141810Z 06009KT 34/19 A3009 RMK A01 T03380188  RH  041%=      5-min Rain = 0
KHA3 141811Z 05008KT 34/18 A3009 RMK A01 T03400184  RH  040%=      5-min Rain = 0
KHA3 141812Z 03011KT 35/18 A3009 RMK A01 T03450184  RH  039%=      5-min Rain = 0
KHA3 141813Z 03012KT 35/18 A3009 RMK A01 T03450182  RH  038%=      5-min Rain = 0
KHA3 141814Z 03008KT 34/18 A3009 RMK A01 T03410182  RH  039%=      5-min Rain = 0
KHA3 141815Z 03005KT 34/18 A3009 RMK A01 T03390183  RH  040%=      5-min Rain = 0
KHA3 141816Z 05005KT 34/18 A3009 RMK A01 T03380182  RH  040%=      5-min Rain = 0
KHA3 141817Z 04010G16KT 34/18 A3009 RMK A01 T03380183  RH  040%=      5-min Rain = 0
KHA3 141818Z 09013KT 34/18 A3009 RMK A01 T03420182  RH  039%=      5-min Rain = 0
KHA3 141819Z 06013KT 34/18 A3009 RMK A01 T03420180  RH  038%=      5-min Rain = 0
KHA3 141820Z 06015KT 34/18 A3009 RMK A01 T03430178  RH  038%=      5-min Rain = 0
KHA3 141821Z 07011KT 34/18 A3009 RMK A01 T03400178  RH  038%=      5-min Rain = 0
KHA3 141822Z 05012KT 34/18 A3009 RMK A01 T03380180  RH  039%=      5-min Rain = 0
KHA3 141823Z 06010KT 34/18 A3009 RMK A01 T03380178  RH  039%=      5-min Rain = 0
KHA3 141824Z 03009KT 34/18 A3009 RMK A01 T03390180  RH  039%=      5-min Rain = 0
KHA3 141825Z 03010KT 34/18 A3009 RMK A01 T03430183  RH  039%=      5-min Rain = 0
KHA3 141826Z 06012KT 34/18 A3009 RMK A01 T03430182  RH  039%=      5-min Rain = 0
KHA3 141827Z 08009KT 34/18 A3009 RMK A01 T03420182  RH  039%=      5-min Rain = 0
KHA3 141828Z 05011KT 34/18 A3009 RMK A01 T03410181  RH  039%=      5-min Rain = 0
KHA3 141829Z 03014KT 35/18 A3008 RMK A01 T03450176  RH  037%=      5-min Rain = 0
KHA3 141830Z 02014KT 35/17 A3009 RMK A01 T03490174  RH  036%=      5-min Rain = 0
KHA3 141831Z 02011KT 35/18 A3009 RMK A01 T03480175  RH  036%=      5-min Rain = 0
KHA3 141832Z 03010KT 35/18 A3009 RMK A01 T03470178  RH  037%=      5-min Rain = 0
KHA3 141833Z 02009KT 35/18 A3008 RMK A01 T03450177  RH  037%=      5-min Rain = 0
KHA3 141834Z 04009KT 34/18 A3008 RMK A01 T03420177  RH  038%=      5-min Rain = 0
KHA3 141835Z 03007KT 34/18 A3008 RMK A01 T03400178  RH  038%=      5-min Rain = 0
KHA3 141836Z 07008KT 34/18 A3008 RMK A01 T03440183  RH  039%=      5-min Rain = 0
KHA3 141837Z 09011KT 35/18 A3008 RMK A01 T03480181  RH  037%=      5-min Rain = 0
KHA3 141838Z 04012G17KT 35/18 A3008 RMK A01 T03480183  RH  038%=      5-min Rain = 0
KHA3 141839Z 03011KT 35/18 A3008 RMK A01 T03490181  RH  037%=      5-min Rain = 0
KHA3 141840Z 03011KT 35/18 A3008 RMK A01 T03450183  RH  039%=      5-min Rain = 0
KHA3 141841Z 03012KT 35/18 A3008 RMK A01 T03450184  RH  039%=      5-min Rain = 0
KHA3 141842Z 04014KT 35/18 A3008 RMK A01 T03480184  RH  038%=      5-min Rain = 0
KHA3 141843Z 05013KT 34/18 A3008 RMK A01 T03440183  RH  039%=      5-min Rain = 0
KHA3 141844Z 06008KT 34/18 A3008 RMK A01 T03410184  RH  039%=      5-min Rain = 0
KHA3 141845Z 07006KT 34/18 A3008 RMK A01 T03420183  RH  039%=      5-min Rain = 0
KHA3 141846Z 08008KT 34/18 A3008 RMK A01 T03410183  RH  039%=      5-min Rain = 0
KHA3 141847Z 03010KT 34/18 A3008 RMK A01 T03430182  RH  038%=      5-min Rain = 0
KHA3 141848Z 04013KT 35/18 A3008 RMK A01 T03500182  RH  037%=      5-min Rain = 0
KHA3 141849Z 03011KT 35/18 A3008 RMK A01 T03510179  RH  036%=      5-min Rain = 0
KHA3 141850Z 03010KT 35/18 A3008 RMK A01 T03540180  RH  036%=      5-min Rain = 0
KHA3 141851Z 05009KT 35/18 A3008 RMK A01 T03530178  RH  036%=      5-min Rain = 0
KHA3 141852Z 05007KT 35/18 A3008 RMK A01 T03490177  RH  036%=      5-min Rain = 0
KHA3 141853Z 04010KT 35/18 A3008 RMK A01 T03480182  RH  038%=      5-min Rain = 0
KHA3 141854Z 04012KT 36/18 A3008 RMK A01 T03550184  RH  037%=      5-min Rain = 0
KHA3 141855Z 04013KT 36/18 A3008 RMK A01 T03570183  RH  036%=      5-min Rain = 0
KHA3 141856Z 04011KT 35/18 A3008 RMK A01 T03530178  RH  036%=      5-min Rain = 0
KHA3 141857Z 06015KT 35/18 A3008 RMK A01 T03510179  RH  036%=      5-min Rain = 0
KHA3 141858Z 06011KT 35/18 A3008 RMK A01 T03520175  RH  035%=      5-min Rain = 0
KHA3 141859Z 05011KT 35/18 A3008 RMK A01 T03500177  RH  036%=      5-min Rain = 0
KHA3 141900Z 04015KT 36/18 A3008 RMK A01 T03550178  RH  035%=      5-min Rain = 0
KHA3 141901Z 04013KT 35/18 A3008 RMK A01 T03530175  RH  035%=      5-min Rain = 0
KHA3 141902Z 04010KT 35/18 A3008 RMK A01 T03500175  RH  036%=      5-min Rain = 0
KHA3 141903Z 03013KT 35/18 A3007 RMK A01 T03520176  RH  035%=      5-min Rain = 0
KHA3 141904Z 04012G17KT 35/18 A3007 RMK A01 T03540175  RH  035%=      5-min Rain = 0
KHA3 141905Z 05013KT 35/17 A3007 RMK A01 T03510174  RH  035%=      5-min Rain = 0
KHA3 141906Z 04013KT 35/17 A3008 RMK A01 T03490172  RH  035%=      5-min Rain = 0
KHA3 141907Z 04012KT 35/17 A3008 RMK A01 T03500171  RH  035%=      5-min Rain = 0
KHA3 141908Z 04014KT 35/18 A3008 RMK A01 T03510178  RH  036%=      5-min Rain = 0
KHA3 141909Z 04009KT 35/18 A3008 RMK A01 T03510178  RH  036%=      5-min Rain = 0
KHA3 141910Z 03010KT 35/18 A3008 RMK A01 T03500178  RH  036%=      5-min Rain = 0
KHA3 141911Z 04012KT 35/18 A3008 RMK A01 T03500177  RH  036%=      5-min Rain = 0
KHA3 141912Z 03012KT 35/18 A3008 RMK A01 T03500175  RH  036%=      5-min Rain = 0
KHA3 141913Z 04009KT 35/18 A3008 RMK A01 T03490175  RH  036%=      5-min Rain = 0
KHA3 141914Z 05009KT 35/18 A3008 RMK A01 T03520178  RH  036%=      5-min Rain = 0
KHA3 141915Z 05008KT 35/18 A3007 RMK A01 T03490178  RH  036%=      5-min Rain = 0
KHA3 141916Z 02009KT 35/18 A3007 RMK A01 T03470178  RH  037%=      5-min Rain = 0
KHA3 141917Z 03010KT 35/18 A3007 RMK A01 T03520179  RH  036%=      5-min Rain = 0
KHA3 141918Z 04009KT 35/18 A3007 RMK A01 T03520179  RH  036%=      5-min Rain = 0
KHA3 141919Z 04012G17KT 35/18 A3007 RMK A01 T03540180  RH  036%=      5-min Rain = 0
KHA3 141920Z 04011G16KT 35/18 A3007 RMK A01 T03540181  RH  036%=      5-min Rain = 0
KHA3 141921Z 06013G18KT 35/18 A3007 RMK A01 T03530179  RH  036%=      5-min Rain = 0
KHA3 141922Z 06011KT 35/18 A3007 RMK A01 T03510177  RH  036%=      5-min Rain = 0
KHA3 141923Z 07012KT 35/18 A3007 RMK A01 T03510175  RH  035%=      5-min Rain = 0
KHA3 141924Z 06009KT 35/18 A3007 RMK A01 T03480175  RH  036%=      5-min Rain = 0
KHA3 141925Z 10004KT 35/18 A3007 RMK A01 T03480177  RH  036%=      5-min Rain = 0
KHA3 141926Z 06006G13KT 35/18 A3007 RMK A01 T03490178  RH  036%=      5-min Rain = 0
KHA3 141927Z 04013KT 35/18 A3007 RMK A01 T03510180  RH  036%=      5-min Rain = 0
KHA3 141928Z 05007G12KT 35/18 A3007 RMK A01 T03500179  RH  036%=      5-min Rain = 0
KHA3 141929Z 04010KT 35/18 A3007 RMK A01 T03480180  RH  037%=      5-min Rain = 0
KHA3 141930Z 03010KT 35/18 A3007 RMK A01 T03510180  RH  036%=      5-min Rain = 0
KHA3 141931Z 01008KT 35/18 A3006 RMK A01 T03490178  RH  037%=      5-min Rain = 0
KHA3 141932Z 02007KT 35/18 A3007 RMK A01 T03480178  RH  037%=      5-min Rain = 0
KHA3 141933Z 02007KT 35/18 A3006 RMK A01 T03490179  RH  037%=      5-min Rain = 0
KHA3 141934Z 04010KT 35/18 A3006 RMK A01 T03520180  RH  036%=      5-min Rain = 0
KHA3 141935Z 08011KT 35/18 A3006 RMK A01 T03540177  RH  035%=      5-min Rain = 0
KHA3 141936Z 08012KT 35/18 A3006 RMK A01 T03540175  RH  035%=      5-min Rain = 0
KHA3 141937Z 08011KT 35/18 A3006 RMK A01 T03540176  RH  035%=      5-min Rain = 0
KHA3 141938Z 06015KT 35/18 A3006 RMK A01 T03540176  RH  035%=      5-min Rain = 0
KHA3 141939Z 05012KT 35/18 A3006 RMK A01 T03520176  RH  035%=      5-min Rain = 0
KHA3 141940Z 04010KT 35/18 A3006 RMK A01 T03490180  RH  037%=      5-min Rain = 0
KHA3 141941Z 05009KT 35/18 A3006 RMK A01 T03530181  RH  036%=      5-min Rain = 0
KHA3 141942Z 06006KT 35/18 A3006 RMK A01 T03530180  RH  036%=      5-min Rain = 0
KHA3 141943Z 09002KT 35/18 A3006 RMK A01 T03470180  RH  037%=      5-min Rain = 0
KHA3 141944Z 07001KT 35/18 A3006 RMK A01 T03470181  RH  038%=      5-min Rain = 0
KHA3 141945Z 06001KT 35/18 A3006 RMK A01 T03490182  RH  037%=      5-min Rain = 0
KHA3 141946Z 07004KT 35/18 A3006 RMK A01 T03500182  RH  037%=      5-min Rain = 0
KHA3 141947Z 08009KT 35/18 A3006 RMK A01 T03500183  RH  037%=      5-min Rain = 0
KHA3 141948Z 05009G15KT 36/19 A3006 RMK A01 T03550185  RH  037%=      5-min Rain = 0
KHA3 141949Z 04014KT 36/19 A3006 RMK A01 T03600185  RH  036%=      5-min Rain = 0
KHA3 141950Z 02012KT 36/18 A3006 RMK A01 T03600183  RH  035%=      5-min Rain = 0
KHA3 141951Z 04009KT 36/18 A3006 RMK A01 T03590183  RH  035%=      5-min Rain = 0
KHA3 141952Z 03007KT 36/18 A3006 RMK A01 T03560182  RH  036%=      5-min Rain = 0
KHA3 141953Z 02006KT 36/18 A3006 RMK A01 T03570183  RH  036%=      5-min Rain = 0
KHA3 141954Z 03007KT 36/18 A3005 RMK A01 T03550182  RH  036%=      5-min Rain = 0
KHA3 141955Z 06009KT 36/18 A3005 RMK A01 T03560183  RH  036%=      5-min Rain = 0
KHA3 141956Z 07013KT 36/18 A3005 RMK A01 T03600182  RH  035%=      5-min Rain = 0
KHA3 141957Z 06010KT 36/18 A3005 RMK A01 T03600180  RH  035%=      5-min Rain = 0
KHA3 141958Z 05011KT 36/18 A3005 RMK A01 T03600179  RH  034%=      5-min Rain = 0
KHA3 141959Z 04008G13KT 36/18 A3005 RMK A01 T03610178  RH  034%=      5-min Rain = 0
KHA3 142000Z 02008KT 36/18 A3005 RMK A01 T03590179  RH  035%=      5-min Rain = 0
KHA3 142001Z 02006KT 36/18 A3005 RMK A01 T03580178  RH  035%=      5-min Rain = 0
KHA3 142002Z 03008KT 36/18 A3005 RMK A01 T03580179  RH  035%=      5-min Rain = 0
KHA3 142003Z 03013G20KT 36/18 A3005 RMK A01 T03620180  RH  034%=      5-min Rain = 0
KHA3 142004Z 08013G18KT 36/18 A3005 RMK A01 T03630182  RH  034%=      5-min Rain = 0
KHA3 142005Z 07012KT 36/18 A3005 RMK A01 T03640181  RH  034%=      5-min Rain = 0
KHA3 142006Z 07012KT 36/18 A3005 RMK A01 T03620181  RH  035%=      5-min Rain = 0
KHA3 142007Z 06012KT 36/18 A3005 RMK A01 T03630179  RH  034%=      5-min Rain = 0
KHA3 142008Z 03014KT 36/18 A3005 RMK A01 T03640180  RH  034%=      5-min Rain = 0
KHA3 142009Z 03012KT 36/18 A3005 RMK A01 T03610178  RH  034%=      5-min Rain = 0
KHA3 142010Z 05010KT 36/18 A3005 RMK A01 T03610180  RH  034%=      5-min Rain = 0
KHA3 142011Z 04008G13KT 36/18 A3004 RMK A01 T03610178  RH  034%=      5-min Rain = 0
KHA3 142012Z 08010KT 36/18 A3004 RMK A01 T03590178  RH  035%=      5-min Rain = 0
KHA3 142013Z 06010KT 36/18 A3004 RMK A01 T03610177  RH  034%=      5-min Rain = 0
KHA3 142014Z 06010KT 36/18 A3004 RMK A01 T03600177  RH  034%=      5-min Rain = 0
KHA3 142015Z 08007G12KT 36/17 A3004 RMK A01 T03560171  RH  033%=      5-min Rain = 0
KHA3 142016Z 07009G17KT 35/17 A3004 RMK A01 T03520172  RH  035%=      5-min Rain = 0
KHA3 142017Z 05013KT 35/18 A3004 RMK A01 T03520176  RH  035%=      5-min Rain = 0
KHA3 142018Z 05013KT 35/18 A3004 RMK A01 T03510176  RH  036%=      5-min Rain = 0
KHA3 142019Z 03009KT 35/18 A3004 RMK A01 T03510176  RH  036%=      5-min Rain = 0
KHA3 142020Z 01009KT 35/18 A3004 RMK A01 T03500178  RH  036%=      5-min Rain = 0
KHA3 142021Z 06010G18KT 35/18 A3004 RMK A01 T03530180  RH  036%=      5-min Rain = 0
KHA3 142022Z 05014KT 36/18 A3004 RMK A01 T03590183  RH  035%=      5-min Rain = 0
KHA3 142023Z 05011KT 37/18 A3004 RMK A01 T03650184  RH  035%=      5-min Rain = 0
KHA3 142024Z 06012KT 37/18 A3004 RMK A01 T03670182  RH  034%=      5-min Rain = 0
KHA3 142025Z 08011KT 37/18 A3004 RMK A01 T03650180  RH  034%=      5-min Rain = 0
KHA3 142026Z 08008KT 36/18 A3004 RMK A01 T03590177  RH  034%=      5-min Rain = 0
KHA3 142027Z 09007KT 36/18 A3004 RMK A01 T03570178  RH  035%=      5-min Rain = 0
KHA3 142028Z 09006KT 36/18 A3004 RMK A01 T03560177  RH  035%=      5-min Rain = 0
KHA3 142029Z 09005KT 35/18 A3003 RMK A01 T03520178  RH  036%=      5-min Rain = 0
KHA3 142030Z 04012G18KT 36/18 A3003 RMK A01 T03570181  RH  035%=      5-min Rain = 0
KHA3 142031Z 04013KT 36/18 A3003 RMK A01 T03600179  RH  034%=      5-min Rain = 0
KHA3 142032Z 05011KT 36/18 A3003 RMK A01 T03560177  RH  035%=      5-min Rain = 0
KHA3 142033Z 06013KT 36/18 A3003 RMK A01 T03570178  RH  035%=      5-min Rain = 0
KHA3 142034Z 05012KT 36/18 A3003 RMK A01 T03620179  RH  034%=      5-min Rain = 0
KHA3 142035Z 05008KT 36/18 A3003 RMK A01 T03580177  RH  034%=      5-min Rain = 0
KHA3 142036Z 07011KT 36/18 A3003 RMK A01 T03600180  RH  035%=      5-min Rain = 0
KHA3 142037Z 08013KT 36/18 A3003 RMK A01 T03620178  RH  034%=      5-min Rain = 0
KHA3 142038Z 09012KT 36/18 A3003 RMK A01 T03580175  RH  034%=      5-min Rain = 0
KHA3 142039Z 08007KT 36/18 A3003 RMK A01 T03550176  RH  035%=      5-min Rain = 0
KHA3 142040Z 09009KT 36/18 A3003 RMK A01 T03550178  RH  035%=      5-min Rain = 0
KHA3 142041Z 08010KT 35/18 A3003 RMK A01 T03540179  RH  036%=      5-min Rain = 0
KHA3 142042Z 05011KT 36/18 A3003 RMK A01 T03560181  RH  036%=      5-min Rain = 0
KHA3 142043Z 05010KT 36/18 A3003 RMK A01 T03570182  RH  036%=      5-min Rain = 0
KHA3 142044Z 06013KT 36/18 A3003 RMK A01 T03600182  RH  035%=      5-min Rain = 0
KHA3 142045Z 07012KT 36/18 A3003 RMK A01 T03580179  RH  035%=      5-min Rain = 0
KHA3 142046Z 07011G16KT 36/18 A3003 RMK A01 T03570177  RH  035%=      5-min Rain = 0
KHA3 142047Z 08009KT 36/18 A3003 RMK A01 T03580175  RH  034%=      5-min Rain = 0
KHA3 142048Z 12004KT 36/17 A3003 RMK A01 T03550172  RH  034%=      5-min Rain = 0
KHA3 142049Z 13002KT 35/17 A3003 RMK A01 T03520173  RH  035%=      5-min Rain = 0
KHA3 142050Z 10004KT 35/17 A3002 RMK A01 T03520174  RH  035%=      5-min Rain = 0
KHA3 142051Z 08011G17KT 35/18 A3002 RMK A01 T03540178  RH  035%=      5-min Rain = 0
KHA3 142052Z 07014KT 36/18 A3002 RMK A01 T03570180  RH  035%=      5-min Rain = 0
KHA3 142053Z 08012KT 36/18 A3002 RMK A01 T03580179  RH  035%=      5-min Rain = 0
KHA3 142054Z 09013KT 36/18 A3002 RMK A01 T03610179  RH  034%=      5-min Rain = 0
KHA3 142055Z 09013KT 36/18 A3002 RMK A01 T03630178  RH  034%=      5-min Rain = 0
KHA3 142056Z 08012KT 37/18 A3002 RMK A01 T03650179  RH  034%=      5-min Rain = 0
KHA3 142057Z 08013KT 36/18 A3002 RMK A01 T03630178  RH  034%=      5-min Rain = 0
KHA3 142058Z 07011KT 36/18 A3002 RMK A01 T03620178  RH  034%=      5-min Rain = 0
KHA3 142059Z 07010KT 36/18 A3002 RMK A01 T03600177  RH  034%=      5-min Rain = 0
KHA3 142100Z 07009KT 36/18 A3002 RMK A01 T03600176  RH  034%=      5-min Rain = 0
KHA3 142101Z 04010KT 36/18 A3002 RMK A01 T03580175  RH  034%=      5-min Rain = 0
KHA3 142102Z 04011KT 36/18 A3002 RMK A01 T03600175  RH  034%=      5-min Rain = 0
KHA3 142103Z 03007KT 36/17 A3002 RMK A01 T03590174  RH  034%=      5-min Rain = 0
KHA3 142104Z 00003KT 35/17 A3002 RMK A01 T03540173  RH  034%=      5-min Rain = 0
KHA3 142105Z 05001KT 35/17 A3002 RMK A01 T03520174  RH  035%=      5-min Rain = 0
KHA3 142106Z 08006KT 35/17 A3002 RMK A01 T03540174  RH  035%=      5-min Rain = 0
KHA3 142107Z 08003KT 36/17 A3002 RMK A01 T03570173  RH  034%=      5-min Rain = 0
KHA3 142108Z 10003KT 36/17 A3002 RMK A01 T03570174  RH  034%=      5-min Rain = 0
KHA3 142109Z 12007KT 36/18 A3002 RMK A01 T03570176  RH  034%=      5-min Rain = 0
KHA3 142110Z 11007KT 36/18 A3002 RMK A01 T03590176  RH  034%=      5-min Rain = 0
KHA3 142111Z 06010KT 36/18 A3002 RMK A01 T03590175  RH  034%=      5-min Rain = 0
KHA3 142112Z 07013KT 36/17 A3002 RMK A01 T03600174  RH  033%=      5-min Rain = 0
KHA3 142113Z 08013KT 36/17 A3002 RMK A01 T03640174  RH  033%=      5-min Rain = 0
KHA3 142114Z 09012KT 36/17 A3002 RMK A01 T03630173  RH  033%=      5-min Rain = 0
KHA3 142115Z 10008KT 36/17 A3002 RMK A01 T03590171  RH  033%=      5-min Rain = 0
KHA3 142116Z 09010KT 36/17 A3002 RMK A01 T03590173  RH  033%=      5-min Rain = 0
KHA3 142117Z 06012KT 36/17 A3002 RMK A01 T03620174  RH  033%=      5-min Rain = 0
KHA3 142118Z 06009KT 36/17 A3002 RMK A01 T03600172  RH  033%=      5-min Rain = 0
KHA3 142119Z 07010KT 36/17 A3001 RMK A01 T03560171  RH  034%=      5-min Rain = 0
KHA3 142120Z 10009KT 35/17 A3001 RMK A01 T03540170  RH  034%=      5-min Rain = 0
KHA3 142121Z 10005KT 35/17 A3001 RMK A01 T03530171  RH  034%=      5-min Rain = 0
KHA3 142122Z 12005KT 36/17 A3001 RMK A01 T03560172  RH  034%=      5-min Rain = 0
KHA3 142123Z 05003KT 36/17 A3001 RMK A01 T03580171  RH  033%=      5-min Rain = 0
KHA3 142124Z 05009G16KT 36/17 A3001 RMK A01 T03580171  RH  033%=      5-min Rain = 0
KHA3 142125Z 06011KT 36/17 A3001 RMK A01 T03600170  RH  033%=      5-min Rain = 0
KHA3 142126Z 04012KT 36/17 A3001 RMK A01 T03620171  RH  032%=      5-min Rain = 0
KHA3 142127Z 03010KT 36/17 A3001 RMK A01 T03620168  RH  032%=      5-min Rain = 0
KHA3 142128Z 05007KT 36/17 A3001 RMK A01 T03590167  RH  032%=      5-min Rain = 0
KHA3 142129Z 06007G13KT 36/17 A3001 RMK A01 T03570168  RH  033%=      5-min Rain = 0
KHA3 142130Z 08008G13KT 36/17 A3001 RMK A01 T03560172  RH  034%=      5-min Rain = 0
KHA3 142131Z 07013KT 36/17 A3001 RMK A01 T03550174  RH  034%=      5-min Rain = 0
KHA3 142132Z 08012KT 36/17 A3001 RMK A01 T03570173  RH  034%=      5-min Rain = 0
KHA3 142133Z 07007KT 36/17 A3001 RMK A01 T03550171  RH  034%=      5-min Rain = 0
KHA3 142134Z 08011KT 36/17 A3001 RMK A01 T03550171  RH  034%=      5-min Rain = 0
KHA3 142135Z 10008KT 36/17 A3001 RMK A01 T03560171  RH  033%=      5-min Rain = 0
KHA3 142136Z 08007KT 36/17 A3001 RMK A01 T03550172  RH  034%=      5-min Rain = 0
KHA3 142137Z 07011KT 36/17 A3001 RMK A01 T03570174  RH  034%=      5-min Rain = 0
KHA3 142138Z 06010KT 36/17 A3001 RMK A01 T03570174  RH  034%=      5-min Rain = 0
KHA3 142139Z 06011KT 36/18 A3001 RMK A01 T03600175  RH  034%=      5-min Rain = 0
KHA3 142140Z 05011KT 36/17 A3001 RMK A01 T03580174  RH  034%=      5-min Rain = 0
KHA3 142141Z 05008KT 36/17 A3001 RMK A01 T03550173  RH  034%=      5-min Rain = 0
KHA3 142142Z 03008KT 35/17 A3001 RMK A01 T03540173  RH  034%=      5-min Rain = 0
KHA3 142143Z 04010KT 35/17 A3001 RMK A01 T03540174  RH  035%=      5-min Rain = 0
KHA3 142144Z 04008KT 36/17 A3001 RMK A01 T03550174  RH  034%=      5-min Rain = 0
KHA3 142145Z 05006KT 36/17 A3001 RMK A01 T03560173  RH  034%=      5-min Rain = 0
KHA3 142146Z 05006KT 36/17 A3001 RMK A01 T03560172  RH  034%=      5-min Rain = 0
KHA3 142147Z 05008KT 36/17 A3001 RMK A01 T03560173  RH  034%=      5-min Rain = 0
KHA3 142148Z 04005KT 35/17 A3001 RMK A01 T03540173  RH  034%=      5-min Rain = 0
KHA3 142149Z 03005KT 35/17 A30 RMK A01 T03540173  RH  034%=      5-min Rain = 0
KHA3 142150Z 05006G14KT 35/17 A30 RMK A01 T03540174  RH  034%=      5-min Rain = 0
KHA3 142151Z 06012KT 36/17 A30 RMK A01 T03580174  RH  034%=      5-min Rain = 0
KHA3 142152Z 05012KT 36/17 A30 RMK A01 T03610174  RH  033%=      5-min Rain = 0
KHA3 142153Z 06012KT 36/17 A30 RMK A01 T03630173  RH  033%=      5-min Rain = 0
KHA3 142154Z 06008KT 36/17 A3001 RMK A01 T03600172  RH  033%=      5-min Rain = 0
KHA3 142155Z 05010KT 36/17 A3001 RMK A01 T03600173  RH  033%=      5-min Rain = 0
KHA3 142156Z 05013KT 36/17 A30 RMK A01 T03620171  RH  032%=      5-min Rain = 0
KHA3 142157Z 07011KT 36/17 A3001 RMK A01 T03610169  RH  032%=      5-min Rain = 0
KHA3 142158Z 06012KT 36/17 A3001 RMK A01 T03630171  RH  032%=      5-min Rain = 0
KHA3 142159Z 05009KT 36/17 A3001 RMK A01 T03620171  RH  032%=      5-min Rain = 0
KHA3 142200Z 05010KT 36/17 A3001 RMK A01 T03620170  RH  032%=      5-min Rain = 0
KHA3 142201Z 05010KT 36/17 A3001 RMK A01 T03600169  RH  032%=      5-min Rain = 0
KHA3 142202Z 06009KT 36/17 A3001 RMK A01 T03570168  RH  033%=      5-min Rain = 0
KHA3 142203Z 05008KT 36/17 A3001 RMK A01 T03560169  RH  033%=      5-min Rain = 0
KHA3 142204Z 05006KT 36/17 A3001 RMK A01 T03580169  RH  033%=      5-min Rain = 0
KHA3 142205Z 09009KT 36/17 A3001 RMK A01 T03570167  RH  032%=      5-min Rain = 0
KHA3 142206Z 08010KT 36/17 A30 RMK A01 T03550168  RH  033%=      5-min Rain = 0
KHA3 142207Z 07011KT 36/17 A30 RMK A01 T03550169  RH  033%=      5-min Rain = 0
KHA3 142208Z 07010KT 36/17 A30 RMK A01 T03560169  RH  033%=      5-min Rain = 0
KHA3 142209Z 06006KT 36/17 A3001 RMK A01 T03570168  RH  033%=      5-min Rain = 0
KHA3 142210Z 06003KT 36/17 A30 RMK A01 T03550168  RH  033%=      5-min Rain = 0
KHA3 142211Z 05002KT 35/17 A30 RMK A01 T03540168  RH  033%=      5-min Rain = 0
KHA3 142212Z 05002KT 35/17 A30 RMK A01 T03530168  RH  033%=      5-min Rain = 0
KHA3 142213Z 06006KT 36/17 A30 RMK A01 T03560171  RH  034%=      5-min Rain = 0
KHA3 142214Z 07007KT 36/17 A30 RMK A01 T03620173  RH  033%=      5-min Rain = 0
KHA3 142215Z 04008KT 36/17 A30 RMK A01 T03630172  RH  032%=      5-min Rain = 0
KHA3 142216Z 04015KT 36/17 A30 RMK A01 T03640171  RH  032%=      5-min Rain = 0
KHA3 142217Z 06014KT 36/17 A30 RMK A01 T03640170  RH  032%=      5-min Rain = 0
KHA3 142218Z 07010KT 36/17 A30 RMK A01 T03600168  RH  032%=      5-min Rain = 0
KHA3 142219Z 05011KT 36/17 A30 RMK A01 T03590169  RH  033%=      5-min Rain = 0
KHA3 142220Z 05010KT 36/17 A30 RMK A01 T03580168  RH  033%=      5-min Rain = 0
KHA3 142221Z 07008KT 36/17 A30 RMK A01 T03560168  RH  033%=      5-min Rain = 0
KHA3 142222Z 06009KT 36/17 A30 RMK A01 T03580168  RH  032%=      5-min Rain = 0
KHA3 142223Z 05007KT 36/17 A30 RMK A01 T03580168  RH  033%=      5-min Rain = 0
KHA3 142224Z 05009KT 36/17 A30 RMK A01 T03580169  RH  033%=      5-min Rain = 0
KHA3 142225Z 06008KT 36/17 A30 RMK A01 T03580168  RH  033%=      5-min Rain = 0
KHA3 142226Z 05005KT 36/17 A30 RMK A01 T03550168  RH  033%=      5-min Rain = 0
KHA3 142227Z 04011KT 36/17 A30 RMK A01 T03560168  RH  033%=      5-min Rain = 0
KHA3 142228Z 08011KT 36/17 A30 RMK A01 T03580167  RH  032%=      5-min Rain = 0
KHA3 142229Z 09011KT 36/17 A30 RMK A01 T03610167  RH  032%=      5-min Rain = 0
KHA3 142230Z 08009KT 36/17 A30 RMK A01 T03610167  RH  032%=      5-min Rain = 0
KHA3 142231Z 07011KT 36/17 A30 RMK A01 T03610167  RH  032%=      5-min Rain = 0
KHA3 142232Z 08006KT 36/16 A30 RMK A01 T03580164  RH  032%=      5-min Rain = 0
KHA3 142233Z 08010KT 36/16 A30 RMK A01 T03550164  RH  032%=      5-min Rain = 0
KHA3 142234Z 08008KT 36/16 A30 RMK A01 T03570164  RH  032%=      5-min Rain = 0
KHA3 142235Z 08007KT 36/17 A30 RMK A01 T03570166  RH  032%=      5-min Rain = 0
KHA3 142236Z 15005KT 36/17 A30 RMK A01 T03550166  RH  033%=      5-min Rain = 0
KHA3 142237Z 16004KT 36/17 A30 RMK A01 T03550167  RH  033%=      5-min Rain = 0
KHA3 142238Z 09006KT 36/17 A30 RMK A01 T03560168  RH  033%=      5-min Rain = 0
KHA3 142239Z 08006KT 36/17 A30 RMK A01 T03590170  RH  033%=      5-min Rain = 0
KHA3 142240Z 09006KT 36/17 A30 RMK A01 T03590171  RH  033%=      5-min Rain = 0
KHA3 142241Z 09007KT 36/17 A30 RMK A01 T03600172  RH  033%=      5-min Rain = 0
KHA3 142242Z 12006KT 36/17 A30 RMK A01 T03590172  RH  033%=      5-min Rain = 0
KHA3 142243Z 11006KT 36/17 A30 RMK A01 T03580173  RH  034%=      5-min Rain = 0
KHA3 142244Z 06009KT 36/17 A30 RMK A01 T03570172  RH  034%=      5-min Rain = 0
KHA3 142245Z 06011KT 36/18 A30 RMK A01 T03560176  RH  034%=      5-min Rain = 0
KHA3 142246Z 06013KT 36/18 A30 RMK A01 T03590178  RH  034%=      5-min Rain = 0
KHA3 142247Z 05009KT 36/18 A30 RMK A01 T03590177  RH  034%=      5-min Rain = 0
KHA3 142248Z 06008KT 36/18 A30 RMK A01 T03570177  RH  035%=      5-min Rain = 0
KHA3 142249Z 09008KT 36/18 A30 RMK A01 T03550176  RH  035%=      5-min Rain = 0
KHA3 142250Z 10010KT 36/18 A30 RMK A01 T03550177  RH  035%=      5-min Rain = 0
KHA3 142251Z 10007KT 35/18 A30 RMK A01 T03540176  RH  035%=      5-min Rain = 0
KHA3 142252Z 07011KT 36/18 A30 RMK A01 T03560178  RH  035%=      5-min Rain = 0
KHA3 142253Z 07013KT 36/18 A30 RMK A01 T03600176  RH  034%=      5-min Rain = 0
KHA3 142254Z 07012KT 36/18 A30 RMK A01 T03590175  RH  034%=      5-min Rain = 0
KHA3 142255Z 07009KT 36/18 A30 RMK A01 T03580175  RH  034%=      5-min Rain = 0
KHA3 142256Z 06009KT 36/18 A30 RMK A01 T03600175  RH  034%=      5-min Rain = 0
KHA3 142257Z 05007KT 36/18 A30 RMK A01 T03600175  RH  033%=      5-min Rain = 0
KHA3 142258Z 07009KT 36/18 A30 RMK A01 T03620175  RH  033%=      5-min Rain = 0
KHA3 142259Z 06006KT 36/17 A30 RMK A01 T03620174  RH  033%=      5-min Rain = 0
KHA3 142300Z 06007KT 36/17 A30 RMK A01 T03600174  RH  033%=      5-min Rain = 0
KHA3 142301Z 08009KT 36/18 A30 RMK A01 T03590175  RH  034%=      5-min Rain = 0
KHA3 142302Z 10011KT 36/18 A30 RMK A01 T03600175  RH  034%=      5-min Rain = 0
KHA3 142303Z 09010KT 36/17 A30 RMK A01 T03570173  RH  034%=      5-min Rain = 0
KHA3 142304Z 10013KT 35/17 A30 RMK A01 T03540174  RH  034%=      5-min Rain = 0
KHA3 142305Z 09009KT 35/17 A30 RMK A01 T03540174  RH  034%=      5-min Rain = 0
KHA3 142306Z 09007KT 35/17 A30 RMK A01 T03530174  RH  035%=      5-min Rain = 0
KHA3 142307Z 11009KT 35/18 A30 RMK A01 T03540175  RH  035%=      5-min Rain = 0
KHA3 142308Z 12008KT 35/18 A30 RMK A01 T03540175  RH  035%=      5-min Rain = 0
KHA3 142309Z 13010KT 35/18 A30 RMK A01 T03540175  RH  035%=      5-min Rain = 0
KHA3 142310Z 11006KT 36/18 A30 RMK A01 T03550175  RH  035%=      5-min Rain = 0
KHA3 142311Z 11006KT 36/17 A30 RMK A01 T03550174  RH  034%=      5-min Rain = 0
KHA3 142312Z 13007KT 36/18 A30 RMK A01 T03560175  RH  034%=      5-min Rain = 0
KHA3 142313Z 13007KT 36/18 A30 RMK A01 T03560175  RH  034%=      5-min Rain = 0
KHA3 142314Z 07013KT 36/18 A30 RMK A01 T03580175  RH  034%=      5-min Rain = 0
KHA3 142315Z 07014KT 36/17 A30 RMK A01 T03600173  RH  033%=      5-min Rain = 0
KHA3 142316Z 06011G16KT 36/17 A30 RMK A01 T03580170  RH  033%=      5-min Rain = 0
KHA3 142317Z 06008KT 36/17 A30 RMK A01 T03560169  RH  033%=      5-min Rain = 0
KHA3 142318Z 07008KT 36/17 A30 RMK A01 T03570171  RH  033%=      5-min Rain = 0
KHA3 142319Z 07010KT 36/17 A30 RMK A01 T03570172  RH  034%=      5-min Rain = 0
KHA3 142320Z 06007KT 36/17 A30 RMK A01 T03560170  RH  033%=      5-min Rain = 0
KHA3 142321Z 07006KT 36/17 A30 RMK A01 T03550170  RH  033%=      5-min Rain = 0
KHA3 142322Z 07008KT 35/17 A30 RMK A01 T03540171  RH  034%=      5-min Rain = 0
KHA3 142323Z 07010KT 36/17 A30 RMK A01 T03560172  RH  034%=      5-min Rain = 0
KHA3 142324Z 07011KT 36/17 A30 RMK A01 T03570171  RH  033%=      5-min Rain = 0
KHA3 142325Z 07011KT 36/17 A30 RMK A01 T03560171  RH  033%=      5-min Rain = 0
KHA3 142326Z 06012KT 35/17 A30 RMK A01 T03540171  RH  034%=      5-min Rain = 0
KHA3 142327Z 06010KT 35/17 A30 RMK A01 T03530169  RH  034%=      5-min Rain = 0
KHA3 142328Z 07009KT 35/17 A30 RMK A01 T03530170  RH  034%=      5-min Rain = 0
KHA3 142329Z 07009KT 35/17 A30 RMK A01 T03520172  RH  034%=      5-min Rain = 0
KHA3 142330Z 06012KT 35/17 A30 RMK A01 T03510173  RH  035%=      5-min Rain = 0
KHA3 142331Z 08010KT 35/17 A30 RMK A01 T03500173  RH  035%=      5-min Rain = 0
KHA3 142332Z 07009KT 35/17 A30 RMK A01 T03490174  RH  035%=      5-min Rain = 0
KHA3 142333Z 06009KT 35/18 A30 RMK A01 T03490177  RH  036%=      5-min Rain = 0
KHA3 142334Z 05007KT 35/18 A30 RMK A01 T03500177  RH  036%=      5-min Rain = 0
KHA3 142335Z 05008KT 35/18 A30 RMK A01 T03500178  RH  036%=      5-min Rain = 0
KHA3 142336Z 06008KT 35/18 A30 RMK A01 T03500178  RH  036%=      5-min Rain = 0
KHA3 142337Z 08010KT 35/18 A30 RMK A01 T03500179  RH  036%=      5-min Rain = 0
KHA3 142338Z 07009KT 35/18 A30 RMK A01 T03510178  RH  036%=      5-min Rain = 0
KHA3 142339Z 08009KT 35/18 A30 RMK A01 T03520178  RH  036%=      5-min Rain = 0
KHA3 142340Z 08007KT 35/18 A30 RMK A01 T03530177  RH  036%=      5-min Rain = 0
KHA3 142341Z 08009KT 35/18 A30 RMK A01 T03520176  RH  035%=      5-min Rain = 0
KHA3 142342Z 07010KT 35/18 A30 RMK A01 T03530176  RH  035%=      5-min Rain = 0
KHA3 142343Z 06011KT 35/18 A30 RMK A01 T03530176  RH  035%=      5-min Rain = 0
KHA3 142344Z 06010KT 35/18 A30 RMK A01 T03530176  RH  035%=      5-min Rain = 0
KHA3 142345Z 06009KT 35/18 A30 RMK A01 T03520177  RH  036%=      5-min Rain = 0
KHA3 142346Z 07009KT 35/18 A30 RMK A01 T03500176  RH  036%=      5-min Rain = 0
KHA3 142347Z 08010KT 35/18 A30 RMK A01 T03490175  RH  036%=      5-min Rain = 0
KHA3 142348Z 07010KT 35/18 A30 RMK A01 T03480176  RH  036%=      5-min Rain = 0
KHA3 142349Z 07006KT 35/18 A30 RMK A01 T03470175  RH  036%=      5-min Rain = 0
KHA3 142350Z 08005KT 35/18 A30 RMK A01 T03470175  RH  036%=      5-min Rain = 0
KHA3 142351Z 08007KT 35/18 A30 RMK A01 T03480176  RH  036%=      5-min Rain = 0
KHA3 142352Z 06009KT 35/18 A30 RMK A01 T03500176  RH  036%=      5-min Rain = 0
KHA3 142353Z 06007KT 35/17 A30 RMK A01 T03490173  RH  035%=      5-min Rain = 0
KHA3 142354Z 07008KT 35/17 A30 RMK A01 T03470173  RH  036%=      5-min Rain = 0
KHA3 142355Z 07008KT 35/17 A30 RMK A01 T03470173  RH  036%=      5-min Rain = 0
KHA3 142356Z 07008KT 35/17 A30 RMK A01 T03470172  RH  035%=      5-min Rain = 0
KHA3 142357Z 06007KT 35/17 A30 RMK A01 T03470172  RH  035%=      5-min Rain = 0
KHA3 142358Z 06008KT 35/17 A30 RMK A01 T03480171  RH  035%=      5-min Rain = 0
KHA3 142359Z 07007KT 35/17 A30 RMK A01 T03470172  RH  035%=      5-min Rain = 0
KHA3 150000Z 08006KT 35/17 A30 RMK A01 T03460172  RH  036%=      5-min Rain = 0
KHA3 150001Z 06009KT 35/17 A30 RMK A01 T03470174  RH  036%=      5-min Rain = 0
KHA3 150002Z 06009KT 35/17 A30 RMK A01 T03470173  RH  036%=      5-min Rain = 0
KHA3 150003Z 06010KT 35/17 A30 RMK A01 T03470173  RH  036%=      5-min Rain = 0
KHA3 150004Z 08010KT 35/17 A30 RMK A01 T03480173  RH  035%=      5-min Rain = 0
KHA3 150005Z 07008KT 35/17 A30 RMK A01 T03480172  RH  035%=      5-min Rain = 0
KHA3 150006Z 07008KT 35/17 A30 RMK A01 T03480172  RH  035%=      5-min Rain = 0
KHA3 150007Z 07008KT 35/17 A30 RMK A01 T03470172  RH  035%=      5-min Rain = 0
KHA3 150008Z 08006KT 35/17 A30 RMK A01 T03460171  RH  035%=      5-min Rain = 0
KHA3 150009Z 07005KT 35/17 A30 RMK A01 T03460172  RH  036%=      5-min Rain = 0
KHA3 150010Z 07010KT 35/17 A30 RMK A01 T03470172  RH  035%=      5-min Rain = 0
KHA3 150011Z 07007KT 35/17 A30 RMK A01 T03460170  RH  035%=      5-min Rain = 0
KHA3 150012Z 07007KT 35/17 A30 RMK A01 T03450170  RH  035%=      5-min Rain = 0
KHA3 150013Z 07007KT 35/17 A30 RMK A01 T03450170  RH  035%=      5-min Rain = 0
KHA3 150014Z 08009KT 35/17 A30 RMK A01 T03450170  RH  035%=      5-min Rain = 0
KHA3 150015Z 08008KT 35/17 A30 RMK A01 T03450169  RH  035%=      5-min Rain = 0
KHA3 150016Z 09008KT 35/17 A30 RMK A01 T03450169  RH  035%=      5-min Rain = 0
KHA3 150017Z 09008KT 35/17 A30 RMK A01 T03450169  RH  035%=      5-min Rain = 0
KHA3 150018Z 10007KT 35/17 A30 RMK A01 T03450169  RH  035%=      5-min Rain = 0
KHA3 150019Z 08008KT 34/17 A30 RMK A01 T03440169  RH  035%=      5-min Rain = 0
KHA3 150020Z 07008KT 34/17 A30 RMK A01 T03440170  RH  035%=      5-min Rain = 0
KHA3 150021Z 06011KT 34/17 A30 RMK A01 T03440171  RH  036%=      5-min Rain = 0
KHA3 150022Z 06010KT 34/17 A30 RMK A01 T03440170  RH  036%=      5-min Rain = 0
KHA3 150023Z 06008KT 34/17 A30 RMK A01 T03430169  RH  036%=      5-min Rain = 0
KHA3 150024Z 07008KT 34/17 A30 RMK A01 T03420170  RH  036%=      5-min Rain = 0
KHA3 150025Z 07008KT 34/17 A30 RMK A01 T03420170  RH  036%=      5-min Rain = 0
KHA3 150026Z 06007KT 34/17 A30 RMK A01 T03420170  RH  036%=      5-min Rain = 0
KHA3 150027Z 06008KT 34/17 A30 RMK A01 T03420170  RH  036%=      5-min Rain = 0
KHA3 150028Z 06009KT 34/17 A30 RMK A01 T03420170  RH  036%=      5-min Rain = 0
KHA3 150029Z 07008KT 34/17 A30 RMK A01 T03420169  RH  036%=      5-min Rain = 0
KHA3 150030Z 07009KT 34/17 A30 RMK A01 T03410169  RH  036%=      5-min Rain = 0
KHA3 150031Z 08009KT 34/17 A30 RMK A01 T03420169  RH  036%=      5-min Rain = 0
KHA3 150032Z 08009KT 34/17 A30 RMK A01 T03410168  RH  036%=      5-min Rain = 0
KHA3 150033Z 07009KT 34/17 A30 RMK A01 T03410169  RH  036%=      5-min Rain = 0
KHA3 150034Z 07009KT 34/17 A30 RMK A01 T03410169  RH  036%=      5-min Rain = 0
KHA3 150035Z 07010KT 34/17 A30 RMK A01 T03410170  RH  036%=      5-min Rain = 0
KHA3 150036Z 07010KT 34/17 A30 RMK A01 T03400169  RH  036%=      5-min Rain = 0
KHA3 150037Z 07010KT 34/17 A30 RMK A01 T03390170  RH  036%=      5-min Rain = 0
KHA3 150038Z 06009KT 34/17 A30 RMK A01 T03390169  RH  037%=      5-min Rain = 0
KHA3 150039Z 06010KT 34/17 A30 RMK A01 T03390169  RH  036%=      5-min Rain = 0
KHA3 150040Z 06009KT 34/17 A30 RMK A01 T03390168  RH  036%=      5-min Rain = 0
KHA3 150041Z 06009KT 34/17 A30 RMK A01 T03390169  RH  036%=      5-min Rain = 0
KHA3 150042Z 06008KT 34/17 A3001 RMK A01 T03380169  RH  036%=      5-min Rain = 0
KHA3 150043Z 06008KT 34/17 A30 RMK A01 T03370169  RH  037%=      5-min Rain = 0
KHA3 150044Z 07009KT 34/17 A3001 RMK A01 T03370169  RH  037%=      5-min Rain = 0
KHA3 150045Z 08007KT 34/17 A30 RMK A01 T03350168  RH  037%=      5-min Rain = 0
KHA3 150046Z 07009KT 34/17 A3001 RMK A01 T03350168  RH  037%=      5-min Rain = 0
KHA3 150047Z 07009KT 33/17 A3001 RMK A01 T03340168  RH  037%=      5-min Rain = 0
KHA3 150048Z 07009KT 33/17 A3001 RMK A01 T03330168  RH  037%=      5-min Rain = 0
KHA3 150049Z 07009KT 33/17 A3001 RMK A01 T03330168  RH  037%=      5-min Rain = 0
KHA3 150050Z 07009KT 33/17 A3001 RMK A01 T03320167  RH  037%=      5-min Rain = 0
KHA3 150051Z 07008KT 33/17 A3001 RMK A01 T03310167  RH  037%=      5-min Rain = 0
KHA3 150052Z 06008KT 33/17 A3001 RMK A01 T03310167  RH  037%=      5-min Rain = 0
KHA3 150053Z 07008KT 33/17 A3001 RMK A01 T03310166  RH  037%=      5-min Rain = 0
KHA3 150054Z 07009KT 33/17 A3001 RMK A01 T03310165  RH  037%=      5-min Rain = 0
KHA3 150055Z 07007KT 33/17 A3001 RMK A01 T03300165  RH  037%=      5-min Rain = 0
KHA3 150056Z 06007KT 33/17 A3001 RMK A01 T03310166  RH  037%=      5-min Rain = 0
KHA3 150057Z 06007KT 33/17 A3001 RMK A01 T03300165  RH  037%=      5-min Rain = 0
KHA3 150058Z 06007KT 33/17 A3001 RMK A01 T03300165  RH  037%=      5-min Rain = 0
KHA3 150059Z 06006KT 33/17 A3001 RMK A01 T03290165  RH  037%=      5-min Rain = 0
KHA3 150100Z 06007KT 33/17 A3002 RMK A01 T03290165  RH  038%=      5-min Rain = 0
KHA3 150101Z 06007KT 33/17 A3002 RMK A01 T03280165  RH  038%=      5-min Rain = 0
KHA3 150102Z 07007KT 33/17 A3002 RMK A01 T03280165  RH  038%=      5-min Rain = 0
KHA3 150103Z 06006KT 33/17 A3002 RMK A01 T03280165  RH  038%=      5-min Rain = 0
KHA3 150104Z 06005KT 33/17 A3002 RMK A01 T03270166  RH  038%=      5-min Rain = 0
KHA3 150105Z 07005KT 33/17 A3002 RMK A01 T03260166  RH  038%=      5-min Rain = 0
KHA3 150106Z 06005KT 33/17 A3002 RMK A01 T03250166  RH  039%=      5-min Rain = 0
KHA3 150107Z 06006KT 32/17 A3002 RMK A01 T03240166  RH  039%=      5-min Rain = 0
KHA3 150108Z 07006KT 32/17 A3002 RMK A01 T03240167  RH  039%=      5-min Rain = 0
KHA3 150109Z 07007KT 32/17 A3002 RMK A01 T03230167  RH  039%=      5-min Rain = 0
KHA3 150110Z 07006KT 32/17 A3002 RMK A01 T03230168  RH  040%=      5-min Rain = 0
KHA3 150111Z 07006KT 32/17 A3002 RMK A01 T03230169  RH  040%=      5-min Rain = 0
KHA3 150112Z 07006KT 32/17 A3002 RMK A01 T03220169  RH  040%=      5-min Rain = 0
KHA3 150113Z 07006KT 32/17 A3002 RMK A01 T03210170  RH  040%=      5-min Rain = 0
KHA3 150114Z 07006KT 32/17 A3002 RMK A01 T03200170  RH  041%=      5-min Rain = 0
KHA3 150115Z 07006KT 32/17 A3002 RMK A01 T03200171  RH  041%=      5-min Rain = 0
KHA3 150116Z 07006KT 32/17 A3002 RMK A01 T03190171  RH  041%=      5-min Rain = 0
KHA3 150117Z 07006KT 32/17 A3002 RMK A01 T03180172  RH  042%=      5-min Rain = 0
KHA3 150118Z 07006KT 32/17 A3002 RMK A01 T03180173  RH  042%=      5-min Rain = 0
KHA3 150119Z 07006KT 32/17 A3002 RMK A01 T03170173  RH  042%=      5-min Rain = 0
KHA3 150120Z 06006KT 32/17 A3002 RMK A01 T03160173  RH  042%=      5-min Rain = 0
KHA3 150121Z 07006KT 32/17 A3002 RMK A01 T03150173  RH  043%=      5-min Rain = 0
KHA3 150122Z 07006KT 32/17 A3002 RMK A01 T03150174  RH  043%=      5-min Rain = 0
KHA3 150123Z 06006KT 31/17 A3002 RMK A01 T03140174  RH  043%=      5-min Rain = 0
KHA3 150124Z 07006KT 31/17 A3002 RMK A01 T03140174  RH  043%=      5-min Rain = 0
KHA3 150125Z 07006KT 31/17 A3002 RMK A01 T03140174  RH  043%=      5-min Rain = 0
KHA3 150126Z 06005KT 31/17 A3002 RMK A01 T03130174  RH  043%=      5-min Rain = 0
KHA3 150127Z 06006KT 31/17 A3002 RMK A01 T03130174  RH  043%=      5-min Rain = 0
KHA3 150128Z 06006KT 31/17 A3002 RMK A01 T03120174  RH  044%=      5-min Rain = 0
KHA3 150129Z 06006KT 31/17 A3002 RMK A01 T03120174  RH  044%=      5-min Rain = 0
KHA3 150130Z 06006KT 31/17 A3002 RMK A01 T03110174  RH  044%=      5-min Rain = 0
KHA3 150131Z 07005KT 31/17 A3002 RMK A01 T03110174  RH  044%=      5-min Rain = 0
KHA3 150132Z 07006KT 31/17 A3002 RMK A01 T03100174  RH  044%=      5-min Rain = 0
KHA3 150133Z 07006KT 31/17 A3003 RMK A01 T03100174  RH  044%=      5-min Rain = 0
KHA3 150134Z 07006KT 31/17 A3003 RMK A01 T03090174  RH  044%=      5-min Rain = 0
KHA3 150135Z 07006KT 31/17 A3003 RMK A01 T03090174  RH  045%=      5-min Rain = 0
KHA3 150136Z 07006KT 31/17 A3003 RMK A01 T03080174  RH  045%=      5-min Rain = 0
KHA3 150137Z 07006KT 31/17 A3003 RMK A01 T03070174  RH  045%=      5-min Rain = 0
KHA3 150138Z 07006KT 31/17 A3003 RMK A01 T03070174  RH  045%=      5-min Rain = 0
KHA3 150139Z 07005KT 31/17 A3003 RMK A01 T03050174  RH  045%=      5-min Rain = 0
KHA3 150140Z 07006KT 30/17 A3003 RMK A01 T03040174  RH  046%=      5-min Rain = 0
KHA3 150141Z 07006KT 30/17 A3003 RMK A01 T03030174  RH  046%=      5-min Rain = 0
KHA3 150142Z 08006KT 30/17 A3003 RMK A01 T03030174  RH  046%=      5-min Rain = 0
KHA3 150143Z 08007KT 30/17 A3003 RMK A01 T03020174  RH  046%=      5-min Rain = 0
KHA3 150144Z 08006KT 30/17 A3003 RMK A01 T03020174  RH  046%=      5-min Rain = 0
KHA3 150145Z 08006KT 30/17 A3003 RMK A01 T03010174  RH  047%=      5-min Rain = 0
KHA3 150146Z 09006KT 30/18 A3003 RMK A01 T03010175  RH  047%=      5-min Rain = 0
KHA3 150147Z 09006KT 30/17 A3003 RMK A01 T03000174  RH  047%=      5-min Rain = 0
KHA3 150148Z 08007KT 30/18 A3003 RMK A01 T03000175  RH  047%=      5-min Rain = 0
KHA3 150149Z 08007KT 30/18 A3003 RMK A01 T03000175  RH  047%=      5-min Rain = 0
KHA3 150150Z 09007KT 30/18 A3003 RMK A01 T03000176  RH  047%=      5-min Rain = 0
KHA3 150151Z 08006KT 30/18 A3003 RMK A01 T03000176  RH  047%=      5-min Rain = 0
KHA3 150152Z 08007KT 30/18 A3003 RMK A01 T03000177  RH  047%=      5-min Rain = 0
KHA3 150153Z 08006KT 30/18 A3003 RMK A01 T03000177  RH  047%=      5-min Rain = 0
KHA3 150154Z 09006KT 30/18 A3003 RMK A01 T03000176  RH  047%=      5-min Rain = 0
KHA3 150155Z 09006KT 30/18 A3003 RMK A01 T03000177  RH  048%=      5-min Rain = 0
KHA3 150156Z 09006KT 30/18 A3003 RMK A01 T03000177  RH  048%=      5-min Rain = 0
KHA3 150157Z 09006KT 30/18 A3003 RMK A01 T03000177  RH  048%=      5-min Rain = 0
KHA3 150158Z 09006KT 30/18 A3004 RMK A01 T03000177  RH  048%=      5-min Rain = 0
KHA3 150159Z 09006KT 30/18 A3004 RMK A01 T03000177  RH  048%=      5-min Rain = 0
KHA3 150200Z 10005KT 30/18 A3004 RMK A01 T03000177  RH  048%=      5-min Rain = 0
KHA3 150201Z 09005KT 30/18 A3004 RMK A01 T02990177  RH  048%=      5-min Rain = 0
KHA3 150202Z 09005KT 30/18 A3004 RMK A01 T02980177  RH  048%=      5-min Rain = 0
KHA3 150203Z 09005KT 30/18 A3004 RMK A01 T02980177  RH  048%=      5-min Rain = 0
KHA3 150204Z 09005KT 30/18 A3004 RMK A01 T02980177  RH  048%=      5-min Rain = 0
KHA3 150205Z 09005KT 30/18 A3004 RMK A01 T02970177  RH  048%=      5-min Rain = 0
KHA3 150206Z 09005KT 30/18 A3004 RMK A01 T02970178  RH  049%=      5-min Rain = 0
KHA3 150207Z 10005KT 30/18 A3004 RMK A01 T02960177  RH  049%=      5-min Rain = 0
KHA3 150208Z 10005KT 30/18 A3004 RMK A01 T02960178  RH  049%=      5-min Rain = 0
KHA3 150209Z 10005KT 30/18 A3004 RMK A01 T02960178  RH  049%=      5-min Rain = 0
KHA3 150210Z 10005KT 30/18 A3004 RMK A01 T02960178  RH  049%=      5-min Rain = 0
KHA3 150211Z 10005KT 30/18 A3004 RMK A01 T02960179  RH  049%=      5-min Rain = 0
KHA3 150212Z 10006KT 30/18 A3004 RMK A01 T02960179  RH  049%=      5-min Rain = 0
KHA3 150213Z 10006KT 30/18 A3004 RMK A01 T02960179  RH  049%=      5-min Rain = 0
KHA3 150214Z 10005KT 30/18 A3004 RMK A01 T02960179  RH  049%=      5-min Rain = 0
KHA3 150215Z 10006KT 30/18 A3005 RMK A01 T02960179  RH  050%=      5-min Rain = 0
KHA3 150216Z 10006KT 30/18 A3005 RMK A01 T02960180  RH  050%=      5-min Rain = 0
KHA3 150217Z 10006KT 30/18 A3005 RMK A01 T02950179  RH  050%=      5-min Rain = 0
KHA3 150218Z 10005KT 30/18 A3005 RMK A01 T02960180  RH  050%=      5-min Rain = 0
KHA3 150219Z 10006KT 30/18 A3005 RMK A01 T02960180  RH  050%=      5-min Rain = 0
KHA3 150220Z 10005KT 30/18 A3005 RMK A01 T02950180  RH  050%=      5-min Rain = 0
KHA3 150221Z 10006KT 30/18 A3005 RMK A01 T02960180  RH  050%=      5-min Rain = 0
KHA3 150222Z 10006KT 30/18 A3005 RMK A01 T02960180  RH  050%=      5-min Rain = 0
KHA3 150223Z 10006KT 30/18 A3005 RMK A01 T02960180  RH  050%=      5-min Rain = 0
KHA3 150224Z 10006KT 30/18 A3005 RMK A01 T02950180  RH  050%=      5-min Rain = 0
KHA3 150225Z 10006KT 30/18 A3005 RMK A01 T02950180  RH  050%=      5-min Rain = 0
KHA3 150226Z 10007KT 30/18 A3005 RMK A01 T02950180  RH  050%=      5-min Rain = 0
KHA3 150227Z 10006KT 30/18 A3005 RMK A01 T02950180  RH  050%=      5-min Rain = 0
KHA3 150228Z 10006KT 30/18 A3005 RMK A01 T02950180  RH  050%=      5-min Rain = 0
KHA3 150229Z 10006KT 30/18 A3006 RMK A01 T02950180  RH  050%=      5-min Rain = 0
KHA3 150230Z 10007KT 30/18 A3006 RMK A01 T02960180  RH  050%=      5-min Rain = 0
KHA3 150231Z 10006KT 30/18 A3006 RMK A01 T02960180  RH  050%=      5-min Rain = 0
KHA3 150232Z 10006KT 30/18 A3006 RMK A01 T02960180  RH  050%=      5-min Rain = 0
KHA3 150233Z 10006KT 30/18 A3006 RMK A01 T02960180  RH  050%=      5-min Rain = 0
KHA3 150234Z 10006KT 30/18 A3006 RMK A01 T02960180  RH  050%=      5-min Rain = 0
KHA3 150235Z 10006KT 30/18 A3006 RMK A01 T02950180  RH  050%=      5-min Rain = 0
KHA3 150236Z 10006KT 30/18 A3006 RMK A01 T02950180  RH  050%=      5-min Rain = 0
KHA3 150237Z 10006KT 30/18 A3006 RMK A01 T02950180  RH  050%=      5-min Rain = 0
KHA3 150238Z 10006KT 29/18 A3006 RMK A01 T02940180  RH  050%=      5-min Rain = 0
KHA3 150239Z 10006KT 29/18 A3006 RMK A01 T02940180  RH  050%=      5-min Rain = 0
KHA3 150240Z 10007KT 29/18 A3006 RMK A01 T02940180  RH  051%=      5-min Rain = 0
KHA3 150241Z 10007KT 29/18 A3006 RMK A01 T02930180  RH  051%=      5-min Rain = 0
KHA3 150242Z 10007KT 29/18 A3006 RMK A01 T02930180  RH  051%=      5-min Rain = 0
KHA3 150243Z 10007KT 29/18 A3006 RMK A01 T02930180  RH  051%=      5-min Rain = 0
KHA3 150244Z 10007KT 29/18 A3006 RMK A01 T02930180  RH  051%=      5-min Rain = 0
KHA3 150245Z 10007KT 29/18 A3006 RMK A01 T02930180  RH  051%=      5-min Rain = 0
KHA3 150246Z 10006KT 29/18 A3006 RMK A01 T02930181  RH  051%=      5-min Rain = 0
KHA3 150247Z 10006KT 29/18 A3006 RMK A01 T02930181  RH  051%=      5-min Rain = 0
KHA3 150248Z 11006KT 29/18 A3006 RMK A01 T02930180  RH  051%=      5-min Rain = 0
KHA3 150249Z 11006KT 29/18 A3006 RMK A01 T02920181  RH  051%=      5-min Rain = 0
KHA3 150250Z 11006KT 29/18 A3006 RMK A01 T02910180  RH  051%=      5-min Rain = 0
KHA3 150251Z 11007KT 29/18 A3006 RMK A01 T02910181  RH  051%=      5-min Rain = 0
KHA3 150252Z 11007KT 29/18 A3006 RMK A01 T02900181  RH  052%=      5-min Rain = 0
KHA3 150253Z 11007KT 29/18 A3007 RMK A01 T02900181  RH  052%=      5-min Rain = 0
KHA3 150254Z 11007KT 29/18 A3007 RMK A01 T02910181  RH  052%=      5-min Rain = 0
KHA3 150255Z 11007KT 29/18 A3007 RMK A01 T02910181  RH  051%=      5-min Rain = 0
KHA3 150256Z 11007KT 29/18 A3007 RMK A01 T02910181  RH  051%=      5-min Rain = 0
KHA3 150257Z 11007KT 29/18 A3007 RMK A01 T02920181  RH  051%=      5-min Rain = 0
KHA3 150258Z 11007KT 29/18 A3007 RMK A01 T02920181  RH  051%=      5-min Rain = 0
KHA3 150259Z 11007KT 29/18 A3007 RMK A01 T02920181  RH  051%=      5-min Rain = 0
KHA3 150300Z 11007KT 29/18 A3007 RMK A01 T02910181  RH  051%=      5-min Rain = 0
KHA3 150301Z 11007KT 29/18 A3007 RMK A01 T02910181  RH  051%=      5-min Rain = 0
KHA3 150302Z 11007KT 29/18 A3007 RMK A01 T02910181  RH  052%=      5-min Rain = 0
KHA3 150303Z 11007KT 29/18 A3007 RMK A01 T02910181  RH  052%=      5-min Rain = 0
KHA3 150304Z 11006KT 29/18 A3007 RMK A01 T02900181  RH  052%=      5-min Rain = 0
KHA3 150305Z 11007KT 29/18 A3007 RMK A01 T02900181  RH  052%=      5-min Rain = 0
KHA3 150306Z 11007KT 29/18 A3007 RMK A01 T02890181  RH  052%=      5-min Rain = 0
KHA3 150307Z 11007KT 29/18 A3007 RMK A01 T02890181  RH  052%=      5-min Rain = 0
KHA3 150308Z 11007KT 29/18 A3007 RMK A01 T02890182  RH  052%=      5-min Rain = 0
KHA3 150309Z 11007KT 29/18 A3007 RMK A01 T02880182  RH  053%=      5-min Rain = 0
KHA3 150310Z 11007KT 29/18 A3007 RMK A01 T02880181  RH  053%=      5-min Rain = 0
KHA3 150311Z 11007KT 29/18 A3007 RMK A01 T02880182  RH  053%=      5-min Rain = 0
KHA3 150312Z 11007KT 29/18 A3007 RMK A01 T02880182  RH  053%=      5-min Rain = 0
KHA3 150313Z 11007KT 29/18 A3007 RMK A01 T02870182  RH  053%=      5-min Rain = 0
KHA3 150314Z 11007KT 29/18 A3007 RMK A01 T02870182  RH  053%=      5-min Rain = 0
KHA3 150315Z 11007KT 29/18 A3007 RMK A01 T02870182  RH  053%=      5-min Rain = 0
KHA3 150316Z 11007KT 29/18 A3007 RMK A01 T02870181  RH  053%=      5-min Rain = 0
KHA3 150317Z 11007KT 29/18 A3007 RMK A01 T02870182  RH  053%=      5-min Rain = 0
KHA3 150318Z 11007KT 29/18 A3007 RMK A01 T02870182  RH  053%=      5-min Rain = 0
KHA3 150319Z 11007KT 29/18 A3007 RMK A01 T02870182  RH  053%=      5-min Rain = 0
KHA3 150320Z 11007KT 29/18 A3007 RMK A01 T02860182  RH  053%=      5-min Rain = 0
KHA3 150321Z 11008KT 29/18 A3007 RMK A01 T02870182  RH  053%=      5-min Rain = 0
KHA3 150322Z 11008KT 29/18 A3007 RMK A01 T02870182  RH  053%=      5-min Rain = 0
KHA3 150323Z 11008KT 29/18 A3007 RMK A01 T02880182  RH  053%=      5-min Rain = 0
KHA3 150324Z 11008KT 29/18 A3007 RMK A01 T02880182  RH  053%=      5-min Rain = 0
KHA3 150325Z 11008KT 29/18 A3007 RMK A01 T02890182  RH  052%=      5-min Rain = 0
KHA3 150326Z 11008KT 29/18 A3007 RMK A01 T02890182  RH  052%=      5-min Rain = 0
KHA3 150327Z 11008KT 29/18 A3007 RMK A01 T02890182  RH  052%=      5-min Rain = 0
KHA3 150328Z 11008KT 29/18 A3007 RMK A01 T02890182  RH  053%=      5-min Rain = 0
KHA3 150329Z 11008KT 29/18 A3007 RMK A01 T02890183  RH  053%=      5-min Rain = 0
KHA3 150330Z 11008KT 29/18 A3007 RMK A01 T02880182  RH  053%=      5-min Rain = 0
KHA3 150331Z 11008KT 29/18 A3007 RMK A01 T02890183  RH  053%=      5-min Rain = 0
KHA3 150332Z 11008KT 29/18 A3007 RMK A01 T02890183  RH  053%=      5-min Rain = 0
KHA3 150333Z 11009KT 29/18 A3007 RMK A01 T02900183  RH  053%=      5-min Rain = 0
KHA3 150334Z 11008KT 29/18 A3007 RMK A01 T02900184  RH  053%=      5-min Rain = 0
KHA3 150335Z 11008KT 29/18 A3007 RMK A01 T02890183  RH  053%=      5-min Rain = 0
KHA3 150336Z 11008KT 29/18 A3007 RMK A01 T02880183  RH  053%=      5-min Rain = 0
KHA3 150337Z 11008KT 29/18 A3007 RMK A01 T02870183  RH  053%=      5-min Rain = 0
KHA3 150338Z 11008KT 29/18 A3007 RMK A01 T02870184  RH  054%=      5-min Rain = 0
KHA3 150339Z 11008KT 29/18 A3007 RMK A01 T02860184  RH  054%=      5-min Rain = 0
KHA3 150340Z 11008KT 29/18 A3008 RMK A01 T02860184  RH  054%=      5-min Rain = 0
KHA3 150341Z 11008KT 29/18 A3008 RMK A01 T02860184  RH  054%=      5-min Rain = 0
KHA3 150342Z 11008KT 29/18 A3008 RMK A01 T02850184  RH  054%=      5-min Rain = 0
KHA3 150343Z 11008KT 28/18 A3008 RMK A01 T02840184  RH  054%=      5-min Rain = 0
KHA3 150344Z 11008KT 28/18 A3008 RMK A01 T02840184  RH  055%=      5-min Rain = 0
KHA3 150345Z 11008KT 28/18 A3008 RMK A01 T02830184  RH  055%=      5-min Rain = 0
KHA3 150346Z 11008KT 28/18 A3008 RMK A01 T02830184  RH  055%=      5-min Rain = 0
KHA3 150347Z 11007KT 28/18 A3008 RMK A01 T02830184  RH  055%=      5-min Rain = 0
KHA3 150348Z 11007KT 28/18 A3008 RMK A01 T02830184  RH  055%=      5-min Rain = 0
KHA3 150349Z 11008KT 28/18 A3008 RMK A01 T02820184  RH  055%=      5-min Rain = 0
KHA3 150350Z 11008KT 28/18 A3008 RMK A01 T02820184  RH  055%=      5-min Rain = 0
KHA3 150351Z 11008KT 28/18 A3008 RMK A01 T02810184  RH  056%=      5-min Rain = 0
KHA3 150352Z 11008KT 28/18 A3008 RMK A01 T02810184  RH  056%=      5-min Rain = 0
KHA3 150353Z 11008KT 28/18 A3008 RMK A01 T02810184  RH  056%=      5-min Rain = 0
KHA3 150354Z 11008KT 28/19 A3008 RMK A01 T02810185  RH  056%=      5-min Rain = 0
KHA3 150355Z 11008KT 28/18 A3008 RMK A01 T02800184  RH  056%=      5-min Rain = 0
KHA3 150356Z 11008KT 28/18 A3008 RMK A01 T02800184  RH  056%=      5-min Rain = 0
KHA3 150357Z 11008KT 28/19 A3008 RMK A01 T02800185  RH  056%=      5-min Rain = 0
KHA3 150358Z 11008KT 28/19 A3008 RMK A01 T02800185  RH  056%=      5-min Rain = 0
KHA3 150359Z 11008KT 28/19 A3008 RMK A01 T02800185  RH  056%=      5-min Rain = 0
KHA3 150400Z 11008KT 28/19 A3008 RMK A01 T02800185  RH  056%=      5-min Rain = 0
KHA3 150401Z 11008KT 28/19 A3008 RMK A01 T02800185  RH  056%=      5-min Rain = 0
KHA3 150402Z 11008KT 28/19 A3008 RMK A01 T02790185  RH  057%=      5-min Rain = 0
KHA3 150403Z 11008KT 28/19 A3008 RMK A01 T02790185  RH  057%=      5-min Rain = 0
KHA3 150404Z 11008KT 28/19 A3008 RMK A01 T02790185  RH  057%=      5-min Rain = 0
KHA3 150405Z 11008KT 28/19 A3008 RMK A01 T02790185  RH  057%=      5-min Rain = 0
KHA3 150406Z 11008KT 28/19 A3008 RMK A01 T02790185  RH  057%=      5-min Rain = 0
KHA3 150407Z 11008KT 28/19 A3008 RMK A01 T02790186  RH  057%=      5-min Rain = 0
KHA3 150408Z 11008KT 28/19 A3008 RMK A01 T02790186  RH  057%=      5-min Rain = 0
KHA3 150409Z 11008KT 28/19 A3008 RMK A01 T02790186  RH  057%=      5-min Rain = 0
KHA3 150410Z 11009KT 28/19 A3008 RMK A01 T02790185  RH  057%=      5-min Rain = 0
KHA3 150411Z 11009KT 28/19 A3008 RMK A01 T02780185  RH  057%=      5-min Rain = 0
KHA3 150412Z 11008KT 28/19 A3008 RMK A01 T02790186  RH  057%=      5-min Rain = 0
KHA3 150413Z 11008KT 28/19 A3008 RMK A01 T02790186  RH  057%=      5-min Rain = 0
KHA3 150414Z 11009KT 28/19 A3008 RMK A01 T02790186  RH  057%=      5-min Rain = 0
KHA3 150415Z 11008KT 28/19 A3008 RMK A01 T02790186  RH  057%=      5-min Rain = 0
KHA3 150416Z 11008KT 28/19 A3008 RMK A01 T02790186  RH  057%=      5-min Rain = 0
KHA3 150417Z 11009KT 28/19 A3008 RMK A01 T02790186  RH  057%=      5-min Rain = 0
KHA3 150418Z 11008KT 28/19 A3008 RMK A01 T02790187  RH  057%=      5-min Rain = 0
KHA3 150419Z 11008KT 28/19 A3008 RMK A01 T02790187  RH  057%=      5-min Rain = 0
KHA3 150420Z 11009KT 28/19 A3008 RMK A01 T02790187  RH  057%=      5-min Rain = 0
KHA3 150421Z 11009KT 28/19 A3008 RMK A01 T02790187  RH  057%=      5-min Rain = 0
KHA3 150422Z 11009KT 28/19 A3008 RMK A01 T02790187  RH  057%=      5-min Rain = 0
KHA3 150423Z 11009KT 28/19 A3008 RMK A01 T02790187  RH  057%=      5-min Rain = 0
KHA3 150424Z 11008KT 28/19 A3008 RMK A01 T02790187  RH  057%=      5-min Rain = 0
KHA3 150425Z 11009KT 28/19 A3008 RMK A01 T02790187  RH  057%=      5-min Rain = 0
KHA3 150426Z 11008KT 28/19 A3008 RMK A01 T02790187  RH  057%=      5-min Rain = 0
KHA3 150427Z 11009KT 28/19 A3008 RMK A01 T02780187  RH  058%=      5-min Rain = 0
KHA3 150428Z 12009KT 28/19 A3008 RMK A01 T02790188  RH  058%=      5-min Rain = 0
KHA3 150429Z 11009KT 28/19 A3008 RMK A01 T02780187  RH  058%=      5-min Rain = 0
KHA3 150430Z 12009KT 28/19 A3008 RMK A01 T02790188  RH  058%=      5-min Rain = 0
KHA3 150431Z 11008KT 28/19 A3008 RMK A01 T02790189  RH  058%=      5-min Rain = 0
KHA3 150432Z 11009KT 28/19 A3008 RMK A01 T02790189  RH  058%=      5-min Rain = 0
KHA3 150433Z 11009KT 28/19 A3009 RMK A01 T02800189  RH  058%=      5-min Rain = 0
KHA3 150434Z 11009KT 28/19 A3009 RMK A01 T02790189  RH  058%=      5-min Rain = 0
KHA3 150435Z 11009KT 28/19 A3009 RMK A01 T02790189  RH  058%=      5-min Rain = 0
KHA3 150436Z 11008KT 28/19 A3009 RMK A01 T02790189  RH  058%=      5-min Rain = 0
KHA3 150437Z 11008KT 28/19 A3009 RMK A01 T02780189  RH  058%=      5-min Rain = 0
KHA3 150438Z 11008KT 28/19 A3009 RMK A01 T02780189  RH  059%=      5-min Rain = 0
KHA3 150439Z 11008KT 28/19 A3009 RMK A01 T02770189  RH  059%=      5-min Rain = 0
KHA3 150440Z 11008KT 28/19 A3009 RMK A01 T02780190  RH  059%=      5-min Rain = 0
KHA3 150441Z 11008KT 28/19 A3009 RMK A01 T02780190  RH  059%=      5-min Rain = 0
KHA3 150442Z 11008KT 28/19 A3009 RMK A01 T02770190  RH  059%=      5-min Rain = 0
KHA3 150443Z 11008KT 28/19 A3009 RMK A01 T02760190  RH  059%=      5-min Rain = 0
KHA3 150444Z 12008KT 28/19 A3009 RMK A01 T02760190  RH  059%=      5-min Rain = 0
KHA3 150445Z 12008KT 28/19 A3009 RMK A01 T02750189  RH  059%=      5-min Rain = 0
KHA3 150446Z 12008KT 28/19 A3009 RMK A01 T02750190  RH  060%=      5-min Rain = 0
KHA3 150447Z 12008KT 28/19 A3009 RMK A01 T02750190  RH  060%=      5-min Rain = 0
KHA3 150448Z 12008KT 28/19 A3009 RMK A01 T02750190  RH  060%=      5-min Rain = 0
KHA3 150449Z 11008KT 28/19 A3009 RMK A01 T02750190  RH  060%=      5-min Rain = 0
KHA3 150450Z 12008KT 28/19 A3009 RMK A01 T02750190  RH  060%=      5-min Rain = 0
KHA3 150451Z 11008KT 28/19 A3009 RMK A01 T02750190  RH  060%=      5-min Rain = 0
KHA3 150452Z 11008KT 28/19 A3009 RMK A01 T02760191  RH  060%=      5-min Rain = 0
KHA3 150453Z 11008KT 28/19 A3009 RMK A01 T02760191  RH  060%=      5-min Rain = 0
KHA3 150454Z 11008KT 28/19 A3009 RMK A01 T02760191  RH  060%=      5-min Rain = 0
KHA3 150455Z 11008KT 28/19 A3009 RMK A01 T02760191  RH  060%=      5-min Rain = 0
KHA3 150456Z 12008KT 28/19 A3009 RMK A01 T02760191  RH  060%=      5-min Rain = 0
KHA3 150457Z 12008KT 28/19 A3009 RMK A01 T02760191  RH  060%=      5-min Rain = 0
KHA3 150458Z 11008KT 28/19 A3009 RMK A01 T02750192  RH  060%=      5-min Rain = 0
KHA3 150459Z 11008KT 28/19 A3009 RMK A01 T02750192  RH  060%=      5-min Rain = 0

Page generated in 0.1256 seconds.